<?xml version="1.0" encoding="UTF-8" standalone="no" ?>
<gpx xmlns="http://www.topografix.com/GPX/1/1" xmlns:xsi="http://www.w3.org/2001/XMLSchema-instance" xsi:schemaLocation="http://www.topografix.com/GPX/1/1 http://www.topografix.com/GPX/1/1/gpx.xsd" version="1.1" creator="VisuGPX - https://www.visugpx.com">
  <metadata>
    <name>83-05-01-2013-Le Figuereit - Château de la Sigue</name>
    <desc><![CDATA[Le Figuereit - Château de la Sigue]]></desc>
  </metadata>
  <wpt lat="43.55795" lon="6.40263">
    <ele>374</ele>
    <name><![CDATA[0000018]]></name>
    <desc><![CDATA[]]></desc>
    <type><![CDATA[Point de départ]]></type>
  </wpt>
  <wpt lat="43.55898" lon="6.40547">
    <ele>357</ele>
    <name><![CDATA[0000019]]></name>
    <desc><![CDATA[<br /><h3>Nom: Segment 1</h3><br /><p>Temps de départ: 01/05/2013 12:00</p><p>Temps d'arrivée: 01/05/2013 15:57</p><p>Distance: 9,5 km (03:56)</p><p>Temps déplacement: 02:33</p><p>Vitesse moyenne: 2,4 km/h</p><p>Vitesse moyenne: 3,7 km/h</p><p>Vitess Max.: 5,1 km/h</p><p>Altitude minimale: 357 m</p><p>Altitude maximale: 580 m</p><p>Vitesse d'élévation: 111 m/h</p><p>Vitesse de descente: -219,4 m/h</p><p>Gain Altitude: 248 m</p><p>Perte Altitude: -261 m</p><p>Temps d'élévation: 02:14</p><p>Temps de descente: 01:11</p>]]></desc>
    <type><![CDATA[Point d'arrivée]]></type>
  </wpt>
  <wpt lat="43.55791" lon="6.40268">
    <ele>393</ele>
    <name><![CDATA[0000020]]></name>
    <desc><![CDATA[<br /><h3>Nom: Segment 1</h3><br /><p>Temps de départ: 01/05/2013 12:00</p><p>Temps d'arrivée: 01/05/2013 16:13</p><p>Distance: 9,9 km (04:12)</p><p>Temps déplacement: 02:43</p><p>Vitesse moyenne: 2,4 km/h</p><p>Vitesse moyenne: 3,6 km/h</p><p>Vitess Max.: 5,1 km/h</p><p>Altitude minimale: 355 m</p><p>Altitude maximale: 580 m</p><p>Vitesse d'élévation: 113,2 m/h</p><p>Vitesse de descente: -219,4 m/h</p><p>Gain Altitude: 281 m</p><p>Perte Altitude: -261 m</p><p>Temps d'élévation: 02:28</p><p>Temps de descente: 01:11</p>]]></desc>
    <type><![CDATA[Point d'arrivée]]></type>
  </wpt>
  <trk>
    <name><![CDATA[essai Figurent]]></name>
    <desc><![CDATA[<h1>OruxMaps</h1><br /><hr align="center" width="480" style="height: 2px; width: 517px"/><h2>Nom: essai Figurent</h2><br /><p>Temps de départ: 01/05/2013 12:00</p><p>Temps d'arrivée: 01/05/2013 16:13</p><p>Distance: 9,9 km (04:12)</p><p>Temps déplacement: 02:43</p><p>Vitesse moyenne: 2,4 km/h</p><p>Vitesse moyenne: 3,6 km/h</p><p>Vitess Max.: 5,1 km/h</p><p>Altitude minimale: 355 m</p><p>Altitude maximale: 580 m</p><p>Vitesse d'élévation: 113,2 m/h</p><p>Vitesse de descente: -219,4 m/h</p><p>Gain Altitude: 281 m</p><p>Perte Altitude: -261 m</p><p>Temps d'élévation: 02:28</p><p>Temps de descente: 01:11</p><hr align="center" width="480" style="height: 2px; width: 517px"/>]]></desc>
    <trkseg>
      <trkpt lat="43.55795" lon="6.40263">
        <ele>374.5734</ele>
        <time>2013-01-05T11:00:59Z</time>
      </trkpt>
      <trkpt lat="43.55786" lon="6.40262">
        <ele>381.49966</ele>
        <time>2013-01-05T11:03:35Z</time>
      </trkpt>
      <trkpt lat="43.55792" lon="6.40272">
        <ele>385.9775</ele>
        <time>2013-01-05T11:04:56Z</time>
      </trkpt>
      <trkpt lat="43.55797" lon="6.40258">
        <ele>388.23965</ele>
        <time>2013-01-05T11:06:08Z</time>
      </trkpt>
      <trkpt lat="43.55805" lon="6.40252">
        <ele>388.41568</ele>
        <time>2013-01-05T11:06:23Z</time>
      </trkpt>
      <trkpt lat="43.55815" lon="6.40252">
        <ele>388.7539</ele>
        <time>2013-01-05T11:06:44Z</time>
      </trkpt>
      <trkpt lat="43.55826" lon="6.40251">
        <ele>389.19482</ele>
        <time>2013-01-05T11:07:02Z</time>
      </trkpt>
      <trkpt lat="43.55836" lon="6.40246">
        <ele>389.5566</ele>
        <time>2013-01-05T11:07:19Z</time>
      </trkpt>
      <trkpt lat="43.55846" lon="6.40238">
        <ele>389.92133</ele>
        <time>2013-01-05T11:07:31Z</time>
      </trkpt>
      <trkpt lat="43.55853" lon="6.4023">
        <ele>390.35452</ele>
        <time>2013-01-05T11:07:43Z</time>
      </trkpt>
      <trkpt lat="43.55858" lon="6.4022">
        <ele>390.79193</ele>
        <time>2013-01-05T11:07:55Z</time>
      </trkpt>
      <trkpt lat="43.55861" lon="6.40208">
        <ele>391.58685</ele>
        <time>2013-01-05T11:08:16Z</time>
      </trkpt>
      <trkpt lat="43.55863" lon="6.40195">
        <ele>392.35934</ele>
        <time>2013-01-05T11:09:01Z</time>
      </trkpt>
      <trkpt lat="43.55864" lon="6.40182">
        <ele>395.9954</ele>
        <time>2013-01-05T11:09:22Z</time>
      </trkpt>
      <trkpt lat="43.55866" lon="6.40167">
        <ele>399.226</ele>
        <time>2013-01-05T11:09:40Z</time>
      </trkpt>
      <trkpt lat="43.55874" lon="6.40158">
        <ele>400.84723</ele>
        <time>2013-01-05T11:09:55Z</time>
      </trkpt>
      <trkpt lat="43.55884" lon="6.40148">
        <ele>401.6218</ele>
        <time>2013-01-05T11:10:16Z</time>
      </trkpt>
      <trkpt lat="43.55892" lon="6.40142">
        <ele>399.6016</ele>
        <time>2013-01-05T11:10:49Z</time>
      </trkpt>
      <trkpt lat="43.55896" lon="6.40128">
        <ele>399.40204</ele>
        <time>2013-01-05T11:11:01Z</time>
      </trkpt>
      <trkpt lat="43.55899" lon="6.40116">
        <ele>399.79898</ele>
        <time>2013-01-05T11:11:10Z</time>
      </trkpt>
      <trkpt lat="43.55908" lon="6.40113">
        <ele>402.18588</ele>
        <time>2013-01-05T11:11:40Z</time>
      </trkpt>
      <trkpt lat="43.55916" lon="6.40105">
        <ele>404.15295</ele>
        <time>2013-01-05T11:11:52Z</time>
      </trkpt>
      <trkpt lat="43.55925" lon="6.401">
        <ele>405.75058</ele>
        <time>2013-01-05T11:12:13Z</time>
      </trkpt>
      <trkpt lat="43.55917" lon="6.40106">
        <ele>405.9033</ele>
        <time>2013-01-05T11:12:46Z</time>
      </trkpt>
      <trkpt lat="43.55922" lon="6.40094">
        <ele>406.48425</ele>
        <time>2013-01-05T11:13:04Z</time>
      </trkpt>
      <trkpt lat="43.55928" lon="6.40084">
        <ele>406.626</ele>
        <time>2013-01-05T11:13:13Z</time>
      </trkpt>
      <trkpt lat="43.55937" lon="6.40073">
        <ele>406.91882</ele>
        <time>2013-01-05T11:13:25Z</time>
      </trkpt>
      <trkpt lat="43.5594" lon="6.40061">
        <ele>407.27307</ele>
        <time>2013-01-05T11:13:40Z</time>
      </trkpt>
      <trkpt lat="43.55945" lon="6.4005">
        <ele>408.03387</ele>
        <time>2013-01-05T11:13:52Z</time>
      </trkpt>
      <trkpt lat="43.55949" lon="6.40039">
        <ele>408.59253</ele>
        <time>2013-01-05T11:14:01Z</time>
      </trkpt>
      <trkpt lat="43.55958" lon="6.40031">
        <ele>409.42014</ele>
        <time>2013-01-05T11:14:13Z</time>
      </trkpt>
      <trkpt lat="43.55967" lon="6.40024">
        <ele>410.2705</ele>
        <time>2013-01-05T11:14:28Z</time>
      </trkpt>
      <trkpt lat="43.55975" lon="6.40017">
        <ele>410.9999</ele>
        <time>2013-01-05T11:14:40Z</time>
      </trkpt>
      <trkpt lat="43.55984" lon="6.40012">
        <ele>412.40787</ele>
        <time>2013-01-05T11:14:58Z</time>
      </trkpt>
      <trkpt lat="43.55991" lon="6.4">
        <ele>413.5383</ele>
        <time>2013-01-05T11:15:07Z</time>
      </trkpt>
      <trkpt lat="43.55998" lon="6.39988">
        <ele>415.20264</ele>
        <time>2013-01-05T11:15:19Z</time>
      </trkpt>
      <trkpt lat="43.56007" lon="6.39983">
        <ele>416.75076</ele>
        <time>2013-01-05T11:15:37Z</time>
      </trkpt>
      <trkpt lat="43.55998" lon="6.39985">
        <ele>417.53662</ele>
        <time>2013-01-05T11:16:01Z</time>
      </trkpt>
      <trkpt lat="43.55999" lon="6.39971">
        <ele>420.69794</ele>
        <time>2013-01-05T11:17:20Z</time>
      </trkpt>
      <trkpt lat="43.56014" lon="6.39974">
        <ele>420.8928</ele>
        <time>2013-01-05T11:17:26Z</time>
      </trkpt>
      <trkpt lat="43.5602" lon="6.39987">
        <ele>421.80634</ele>
        <time>2013-01-05T11:17:35Z</time>
      </trkpt>
      <trkpt lat="43.56024" lon="6.4">
        <ele>424.44363</ele>
        <time>2013-01-05T11:17:49Z</time>
      </trkpt>
      <trkpt lat="43.56032" lon="6.4001">
        <ele>425.85962</ele>
        <time>2013-01-05T11:17:58Z</time>
      </trkpt>
      <trkpt lat="43.56041" lon="6.40013">
        <ele>428.78952</ele>
        <time>2013-01-05T11:18:22Z</time>
      </trkpt>
      <trkpt lat="43.56052" lon="6.40004">
        <ele>430.06973</ele>
        <time>2013-01-05T11:19:01Z</time>
      </trkpt>
      <trkpt lat="43.56065" lon="6.39996">
        <ele>428.4987</ele>
        <time>2013-01-05T11:19:19Z</time>
      </trkpt>
      <trkpt lat="43.56067" lon="6.39983">
        <ele>427.62827</ele>
        <time>2013-01-05T11:19:37Z</time>
      </trkpt>
      <trkpt lat="43.56072" lon="6.39973">
        <ele>429.00278</ele>
        <time>2013-01-05T11:19:52Z</time>
      </trkpt>
      <trkpt lat="43.56082" lon="6.39976">
        <ele>430.9376</ele>
        <time>2013-01-05T11:20:04Z</time>
      </trkpt>
      <trkpt lat="43.56092" lon="6.39973">
        <ele>434.08936</ele>
        <time>2013-01-05T11:20:22Z</time>
      </trkpt>
      <trkpt lat="43.56102" lon="6.39972">
        <ele>436.8595</ele>
        <time>2013-01-05T11:20:37Z</time>
      </trkpt>
      <trkpt lat="43.56111" lon="6.39975">
        <ele>439.9941</ele>
        <time>2013-01-05T11:20:55Z</time>
      </trkpt>
      <trkpt lat="43.5612" lon="6.39979">
        <ele>442.12463</ele>
        <time>2013-01-05T11:21:13Z</time>
      </trkpt>
      <trkpt lat="43.56131" lon="6.3998">
        <ele>444.37616</ele>
        <time>2013-01-05T11:21:28Z</time>
      </trkpt>
      <trkpt lat="43.56141" lon="6.3998">
        <ele>446.1074</ele>
        <time>2013-01-05T11:21:40Z</time>
      </trkpt>
      <trkpt lat="43.5615" lon="6.39986">
        <ele>448.00327</ele>
        <time>2013-01-05T11:21:52Z</time>
      </trkpt>
      <trkpt lat="43.56159" lon="6.39987">
        <ele>449.97226</ele>
        <time>2013-01-05T11:22:03Z</time>
      </trkpt>
      <trkpt lat="43.56167" lon="6.39993">
        <ele>451.07132</ele>
        <time>2013-01-05T11:22:15Z</time>
      </trkpt>
      <trkpt lat="43.56177" lon="6.39998">
        <ele>451.88223</ele>
        <time>2013-01-05T11:22:27Z</time>
      </trkpt>
      <trkpt lat="43.56185" lon="6.40004">
        <ele>453.01514</ele>
        <time>2013-01-05T11:22:42Z</time>
      </trkpt>
      <trkpt lat="43.56196" lon="6.40012">
        <ele>455.018</ele>
        <time>2013-01-05T11:22:57Z</time>
      </trkpt>
      <trkpt lat="43.56205" lon="6.40016">
        <ele>456.19897</ele>
        <time>2013-01-05T11:23:09Z</time>
      </trkpt>
      <trkpt lat="43.56214" lon="6.40022">
        <ele>457.06317</ele>
        <time>2013-01-05T11:23:24Z</time>
      </trkpt>
      <trkpt lat="43.56223" lon="6.40029">
        <ele>457.90964</ele>
        <time>2013-01-05T11:23:39Z</time>
      </trkpt>
      <trkpt lat="43.56232" lon="6.40034">
        <ele>459.00357</ele>
        <time>2013-01-05T11:23:54Z</time>
      </trkpt>
      <trkpt lat="43.56242" lon="6.40036">
        <ele>459.84592</ele>
        <time>2013-01-05T11:24:06Z</time>
      </trkpt>
      <trkpt lat="43.56252" lon="6.40037">
        <ele>460.27243</ele>
        <time>2013-01-05T11:24:18Z</time>
      </trkpt>
      <trkpt lat="43.56262" lon="6.40037">
        <ele>460.64948</ele>
        <time>2013-01-05T11:24:30Z</time>
      </trkpt>
      <trkpt lat="43.56273" lon="6.40037">
        <ele>461.34894</ele>
        <time>2013-01-05T11:24:42Z</time>
      </trkpt>
      <trkpt lat="43.56283" lon="6.40036">
        <ele>462.4591</ele>
        <time>2013-01-05T11:24:54Z</time>
      </trkpt>
      <trkpt lat="43.56291" lon="6.40031">
        <ele>464.19006</ele>
        <time>2013-01-05T11:25:09Z</time>
      </trkpt>
      <trkpt lat="43.56301" lon="6.40024">
        <ele>465.53308</ele>
        <time>2013-01-05T11:25:18Z</time>
      </trkpt>
      <trkpt lat="43.5631" lon="6.4002">
        <ele>466.84808</ele>
        <time>2013-01-05T11:25:30Z</time>
      </trkpt>
      <trkpt lat="43.56316" lon="6.40012">
        <ele>467.80728</ele>
        <time>2013-01-05T11:25:45Z</time>
      </trkpt>
      <trkpt lat="43.56326" lon="6.40007">
        <ele>468.7215</ele>
        <time>2013-01-05T11:26:03Z</time>
      </trkpt>
      <trkpt lat="43.56335" lon="6.39999">
        <ele>468.83423</ele>
        <time>2013-01-05T11:26:15Z</time>
      </trkpt>
      <trkpt lat="43.5634" lon="6.39987">
        <ele>467.8037</ele>
        <time>2013-01-05T11:26:33Z</time>
      </trkpt>
      <trkpt lat="43.56351" lon="6.39977">
        <ele>466.584</ele>
        <time>2013-01-05T11:26:45Z</time>
      </trkpt>
      <trkpt lat="43.5636" lon="6.3997">
        <ele>465.64676</ele>
        <time>2013-01-05T11:26:57Z</time>
      </trkpt>
      <trkpt lat="43.56367" lon="6.39961">
        <ele>465.10037</ele>
        <time>2013-01-05T11:27:09Z</time>
      </trkpt>
      <trkpt lat="43.56378" lon="6.39953">
        <ele>464.83466</ele>
        <time>2013-01-05T11:27:18Z</time>
      </trkpt>
      <trkpt lat="43.56386" lon="6.39943">
        <ele>464.7291</ele>
        <time>2013-01-05T11:27:30Z</time>
      </trkpt>
      <trkpt lat="43.5639" lon="6.39931">
        <ele>464.45105</ele>
        <time>2013-01-05T11:27:42Z</time>
      </trkpt>
      <trkpt lat="43.56395" lon="6.39918">
        <ele>463.94983</ele>
        <time>2013-01-05T11:27:54Z</time>
      </trkpt>
      <trkpt lat="43.56402" lon="6.39908">
        <ele>463.86957</ele>
        <time>2013-01-05T11:28:03Z</time>
      </trkpt>
      <trkpt lat="43.56407" lon="6.39898">
        <ele>464.76724</ele>
        <time>2013-01-05T11:28:15Z</time>
      </trkpt>
      <trkpt lat="43.56411" lon="6.39885">
        <ele>465.76724</ele>
        <time>2013-01-05T11:28:27Z</time>
      </trkpt>
      <trkpt lat="43.56413" lon="6.39872">
        <ele>466.28073</ele>
        <time>2013-01-05T11:28:36Z</time>
      </trkpt>
      <trkpt lat="43.56415" lon="6.3986">
        <ele>466.58743</ele>
        <time>2013-01-05T11:28:48Z</time>
      </trkpt>
      <trkpt lat="43.56419" lon="6.39848">
        <ele>467.11188</ele>
        <time>2013-01-05T11:28:57Z</time>
      </trkpt>
      <trkpt lat="43.56423" lon="6.39835">
        <ele>467.7912</ele>
        <time>2013-01-05T11:29:06Z</time>
      </trkpt>
      <trkpt lat="43.56428" lon="6.39824">
        <ele>468.20108</ele>
        <time>2013-01-05T11:29:12Z</time>
      </trkpt>
      <trkpt lat="43.56433" lon="6.39812">
        <ele>468.38788</ele>
        <time>2013-01-05T11:29:24Z</time>
      </trkpt>
      <trkpt lat="43.56443" lon="6.39806">
        <ele>468.17987</ele>
        <time>2013-01-05T11:29:39Z</time>
      </trkpt>
      <trkpt lat="43.5645" lon="6.39797">
        <ele>468.4342</ele>
        <time>2013-01-05T11:29:48Z</time>
      </trkpt>
      <trkpt lat="43.56458" lon="6.39789">
        <ele>468.77243</ele>
        <time>2013-01-05T11:30:03Z</time>
      </trkpt>
      <trkpt lat="43.56468" lon="6.39781">
        <ele>469.61014</ele>
        <time>2013-01-05T11:30:15Z</time>
      </trkpt>
      <trkpt lat="43.56477" lon="6.39774">
        <ele>470.87582</ele>
        <time>2013-01-05T11:30:24Z</time>
      </trkpt>
      <trkpt lat="43.56486" lon="6.3977">
        <ele>472.60797</ele>
        <time>2013-01-05T11:30:36Z</time>
      </trkpt>
      <trkpt lat="43.56494" lon="6.39762">
        <ele>474.27115</ele>
        <time>2013-01-05T11:30:48Z</time>
      </trkpt>
      <trkpt lat="43.56501" lon="6.39755">
        <ele>476.10794</ele>
        <time>2013-01-05T11:31:00Z</time>
      </trkpt>
      <trkpt lat="43.5651" lon="6.3975">
        <ele>477.43546</ele>
        <time>2013-01-05T11:31:09Z</time>
      </trkpt>
      <trkpt lat="43.5652" lon="6.39742">
        <ele>478.74054</ele>
        <time>2013-01-05T11:31:21Z</time>
      </trkpt>
      <trkpt lat="43.56528" lon="6.39735">
        <ele>479.8656</ele>
        <time>2013-01-05T11:31:33Z</time>
      </trkpt>
      <trkpt lat="43.56537" lon="6.39727">
        <ele>480.82</ele>
        <time>2013-01-05T11:31:45Z</time>
      </trkpt>
      <trkpt lat="43.56544" lon="6.39717">
        <ele>481.7795</ele>
        <time>2013-01-05T11:31:57Z</time>
      </trkpt>
      <trkpt lat="43.56552" lon="6.39712">
        <ele>482.9015</ele>
        <time>2013-01-05T11:32:09Z</time>
      </trkpt>
      <trkpt lat="43.56561" lon="6.39707">
        <ele>484.94525</ele>
        <time>2013-01-05T11:32:30Z</time>
      </trkpt>
      <trkpt lat="43.5657" lon="6.39699">
        <ele>486.62482</ele>
        <time>2013-01-05T11:32:45Z</time>
      </trkpt>
      <trkpt lat="43.5658" lon="6.39692">
        <ele>488.13892</ele>
        <time>2013-01-05T11:32:57Z</time>
      </trkpt>
      <trkpt lat="43.56589" lon="6.39685">
        <ele>489.411</ele>
        <time>2013-01-05T11:33:09Z</time>
      </trkpt>
      <trkpt lat="43.56594" lon="6.39674">
        <ele>490.79062</ele>
        <time>2013-01-05T11:33:27Z</time>
      </trkpt>
      <trkpt lat="43.56601" lon="6.39663">
        <ele>491.3225</ele>
        <time>2013-01-05T11:33:39Z</time>
      </trkpt>
      <trkpt lat="43.56607" lon="6.39654">
        <ele>491.045</ele>
        <time>2013-01-05T11:33:51Z</time>
      </trkpt>
      <trkpt lat="43.56615" lon="6.39643">
        <ele>490.73132</ele>
        <time>2013-01-05T11:34:03Z</time>
      </trkpt>
      <trkpt lat="43.56622" lon="6.39635">
        <ele>490.64783</ele>
        <time>2013-01-05T11:34:12Z</time>
      </trkpt>
      <trkpt lat="43.5663" lon="6.39627">
        <ele>490.89957</ele>
        <time>2013-01-05T11:34:21Z</time>
      </trkpt>
      <trkpt lat="43.56636" lon="6.39614">
        <ele>491.75024</ele>
        <time>2013-01-05T11:34:36Z</time>
      </trkpt>
      <trkpt lat="43.56644" lon="6.39606">
        <ele>492.15475</ele>
        <time>2013-01-05T11:34:48Z</time>
      </trkpt>
      <trkpt lat="43.56652" lon="6.39599">
        <ele>492.71716</ele>
        <time>2013-01-05T11:35:03Z</time>
      </trkpt>
      <trkpt lat="43.5666" lon="6.39594">
        <ele>493.6422</ele>
        <time>2013-01-05T11:35:27Z</time>
      </trkpt>
      <trkpt lat="43.56665" lon="6.39581">
        <ele>494.90097</ele>
        <time>2013-01-05T11:35:42Z</time>
      </trkpt>
      <trkpt lat="43.56669" lon="6.39567">
        <ele>496.34222</ele>
        <time>2013-01-05T11:35:54Z</time>
      </trkpt>
      <trkpt lat="43.56672" lon="6.39554">
        <ele>497.3023</ele>
        <time>2013-01-05T11:36:12Z</time>
      </trkpt>
      <trkpt lat="43.56679" lon="6.39542">
        <ele>497.4012</ele>
        <time>2013-01-05T11:36:24Z</time>
      </trkpt>
      <trkpt lat="43.56684" lon="6.39531">
        <ele>497.42502</ele>
        <time>2013-01-05T11:36:33Z</time>
      </trkpt>
      <trkpt lat="43.5669" lon="6.39521">
        <ele>497.7696</ele>
        <time>2013-01-05T11:36:45Z</time>
      </trkpt>
      <trkpt lat="43.56698" lon="6.39514">
        <ele>497.98053</ele>
        <time>2013-01-05T11:36:54Z</time>
      </trkpt>
      <trkpt lat="43.56709" lon="6.39511">
        <ele>498.35916</ele>
        <time>2013-01-05T11:37:06Z</time>
      </trkpt>
      <trkpt lat="43.56721" lon="6.39508">
        <ele>499.35562</ele>
        <time>2013-01-05T11:37:18Z</time>
      </trkpt>
      <trkpt lat="43.5673" lon="6.39503">
        <ele>500.8139</ele>
        <time>2013-01-05T11:37:27Z</time>
      </trkpt>
      <trkpt lat="43.56739" lon="6.39496">
        <ele>502.37296</ele>
        <time>2013-01-05T11:37:36Z</time>
      </trkpt>
      <trkpt lat="43.56746" lon="6.39488">
        <ele>503.61166</ele>
        <time>2013-01-05T11:37:45Z</time>
      </trkpt>
      <trkpt lat="43.56755" lon="6.39484">
        <ele>505.06732</ele>
        <time>2013-01-05T11:37:57Z</time>
      </trkpt>
      <trkpt lat="43.56766" lon="6.39474">
        <ele>507.08218</ele>
        <time>2013-01-05T11:38:09Z</time>
      </trkpt>
      <trkpt lat="43.56775" lon="6.39473">
        <ele>510.46515</ele>
        <time>2013-01-05T11:38:42Z</time>
      </trkpt>
      <trkpt lat="43.56786" lon="6.39472">
        <ele>511.7446</ele>
        <time>2013-01-05T11:39:36Z</time>
      </trkpt>
      <trkpt lat="43.56795" lon="6.39477">
        <ele>515.32446</ele>
        <time>2013-01-05T11:40:00Z</time>
      </trkpt>
      <trkpt lat="43.56804" lon="6.39485">
        <ele>517.1495</ele>
        <time>2013-01-05T11:40:12Z</time>
      </trkpt>
      <trkpt lat="43.56813" lon="6.39493">
        <ele>519.0779</ele>
        <time>2013-01-05T11:40:24Z</time>
      </trkpt>
      <trkpt lat="43.56821" lon="6.395">
        <ele>521.80927</ele>
        <time>2013-01-05T11:40:39Z</time>
      </trkpt>
      <trkpt lat="43.56827" lon="6.39509">
        <ele>524.52155</ele>
        <time>2013-01-05T11:40:54Z</time>
      </trkpt>
      <trkpt lat="43.56837" lon="6.39515">
        <ele>526.5342</ele>
        <time>2013-01-05T11:41:06Z</time>
      </trkpt>
      <trkpt lat="43.56845" lon="6.39521">
        <ele>529.05475</ele>
        <time>2013-01-05T11:41:24Z</time>
      </trkpt>
      <trkpt lat="43.56851" lon="6.39531">
        <ele>530.7261</ele>
        <time>2013-01-05T11:42:00Z</time>
      </trkpt>
      <trkpt lat="43.5686" lon="6.39534">
        <ele>532.81805</ele>
        <time>2013-01-05T11:43:24Z</time>
      </trkpt>
      <trkpt lat="43.56869" lon="6.39537">
        <ele>533.86554</ele>
        <time>2013-01-05T11:43:42Z</time>
      </trkpt>
      <trkpt lat="43.5688" lon="6.39539">
        <ele>534.68164</ele>
        <time>2013-01-05T11:43:54Z</time>
      </trkpt>
      <trkpt lat="43.56889" lon="6.39544">
        <ele>535.4372</ele>
        <time>2013-01-05T11:44:06Z</time>
      </trkpt>
      <trkpt lat="43.56899" lon="6.39547">
        <ele>535.65814</ele>
        <time>2013-01-05T11:44:36Z</time>
      </trkpt>
      <trkpt lat="43.5691" lon="6.39553">
        <ele>536.14935</ele>
        <time>2013-01-05T11:44:48Z</time>
      </trkpt>
      <trkpt lat="43.56919" lon="6.39556">
        <ele>536.4933</ele>
        <time>2013-01-05T11:45:06Z</time>
      </trkpt>
      <trkpt lat="43.5693" lon="6.3956">
        <ele>537.3715</ele>
        <time>2013-01-05T11:45:33Z</time>
      </trkpt>
      <trkpt lat="43.56938" lon="6.39564">
        <ele>538.53</ele>
        <time>2013-01-05T11:45:45Z</time>
      </trkpt>
      <trkpt lat="43.56947" lon="6.39568">
        <ele>541.2122</ele>
        <time>2013-01-05T11:46:03Z</time>
      </trkpt>
      <trkpt lat="43.56956" lon="6.39574">
        <ele>543.0314</ele>
        <time>2013-01-05T11:46:12Z</time>
      </trkpt>
      <trkpt lat="43.56965" lon="6.39579">
        <ele>544.48645</ele>
        <time>2013-01-05T11:46:21Z</time>
      </trkpt>
      <trkpt lat="43.56974" lon="6.39582">
        <ele>546.1128</ele>
        <time>2013-01-05T11:46:36Z</time>
      </trkpt>
      <trkpt lat="43.56986" lon="6.39586">
        <ele>547.0003</ele>
        <time>2013-01-05T11:46:54Z</time>
      </trkpt>
      <trkpt lat="43.56995" lon="6.39589">
        <ele>547.84955</ele>
        <time>2013-01-05T11:47:09Z</time>
      </trkpt>
      <trkpt lat="43.57004" lon="6.39594">
        <ele>548.97565</ele>
        <time>2013-01-05T11:47:24Z</time>
      </trkpt>
      <trkpt lat="43.57015" lon="6.39596">
        <ele>550.0348</ele>
        <time>2013-01-05T11:47:36Z</time>
      </trkpt>
      <trkpt lat="43.57025" lon="6.39597">
        <ele>552.0011</ele>
        <time>2013-01-05T11:47:51Z</time>
      </trkpt>
      <trkpt lat="43.57036" lon="6.396">
        <ele>553.7073</ele>
        <time>2013-01-05T11:48:15Z</time>
      </trkpt>
      <trkpt lat="43.57045" lon="6.39605">
        <ele>554.1874</ele>
        <time>2013-01-05T11:48:27Z</time>
      </trkpt>
      <trkpt lat="43.57054" lon="6.39612">
        <ele>556.12646</ele>
        <time>2013-01-05T11:50:15Z</time>
      </trkpt>
      <trkpt lat="43.57061" lon="6.39604">
        <ele>555.65765</ele>
        <time>2013-01-05T11:50:27Z</time>
      </trkpt>
      <trkpt lat="43.57067" lon="6.39593">
        <ele>555.2492</ele>
        <time>2013-01-05T11:50:39Z</time>
      </trkpt>
      <trkpt lat="43.57072" lon="6.39581">
        <ele>555.20966</ele>
        <time>2013-01-05T11:50:48Z</time>
      </trkpt>
      <trkpt lat="43.5708" lon="6.39573">
        <ele>556.0948</ele>
        <time>2013-01-05T11:51:03Z</time>
      </trkpt>
      <trkpt lat="43.57088" lon="6.39567">
        <ele>557.2472</ele>
        <time>2013-01-05T11:51:15Z</time>
      </trkpt>
      <trkpt lat="43.57098" lon="6.39565">
        <ele>557.7865</ele>
        <time>2013-01-05T11:51:27Z</time>
      </trkpt>
      <trkpt lat="43.57108" lon="6.39556">
        <ele>558.3007</ele>
        <time>2013-01-05T11:51:42Z</time>
      </trkpt>
      <trkpt lat="43.57119" lon="6.3955">
        <ele>559.09894</ele>
        <time>2013-01-05T11:51:54Z</time>
      </trkpt>
      <trkpt lat="43.57128" lon="6.39544">
        <ele>560.0357</ele>
        <time>2013-01-05T11:52:06Z</time>
      </trkpt>
      <trkpt lat="43.57139" lon="6.39541">
        <ele>561.2078</ele>
        <time>2013-01-05T11:52:18Z</time>
      </trkpt>
      <trkpt lat="43.57147" lon="6.39536">
        <ele>562.4667</ele>
        <time>2013-01-05T11:52:30Z</time>
      </trkpt>
      <trkpt lat="43.57156" lon="6.39531">
        <ele>563.21063</ele>
        <time>2013-01-05T11:52:39Z</time>
      </trkpt>
      <trkpt lat="43.57164" lon="6.39525">
        <ele>563.7943</ele>
        <time>2013-01-05T11:52:51Z</time>
      </trkpt>
      <trkpt lat="43.57173" lon="6.39522">
        <ele>564.2796</ele>
        <time>2013-01-05T11:53:03Z</time>
      </trkpt>
      <trkpt lat="43.57183" lon="6.39517">
        <ele>565.62164</ele>
        <time>2013-01-05T11:53:15Z</time>
      </trkpt>
      <trkpt lat="43.57194" lon="6.3951">
        <ele>566.97076</ele>
        <time>2013-01-05T11:53:27Z</time>
      </trkpt>
      <trkpt lat="43.57203" lon="6.39504">
        <ele>567.592</ele>
        <time>2013-01-05T11:53:36Z</time>
      </trkpt>
      <trkpt lat="43.57212" lon="6.39497">
        <ele>568.6273</ele>
        <time>2013-01-05T11:53:48Z</time>
      </trkpt>
      <trkpt lat="43.57221" lon="6.39486">
        <ele>570.16455</ele>
        <time>2013-01-05T11:54:00Z</time>
      </trkpt>
      <trkpt lat="43.57231" lon="6.39481">
        <ele>571.45325</ele>
        <time>2013-01-05T11:54:09Z</time>
      </trkpt>
      <trkpt lat="43.5724" lon="6.39475">
        <ele>572.2602</ele>
        <time>2013-01-05T11:54:21Z</time>
      </trkpt>
      <trkpt lat="43.57248" lon="6.3947">
        <ele>572.391</ele>
        <time>2013-01-05T11:54:30Z</time>
      </trkpt>
      <trkpt lat="43.57256" lon="6.39463">
        <ele>572.8241</ele>
        <time>2013-01-05T11:54:39Z</time>
      </trkpt>
      <trkpt lat="43.57266" lon="6.39463">
        <ele>574.23566</ele>
        <time>2013-01-05T11:55:12Z</time>
      </trkpt>
      <trkpt lat="43.57276" lon="6.39461">
        <ele>574.5245</ele>
        <time>2013-01-05T11:56:33Z</time>
      </trkpt>
      <trkpt lat="43.57277" lon="6.39447">
        <ele>574.38684</ele>
        <time>2013-01-05T11:57:03Z</time>
      </trkpt>
      <trkpt lat="43.57265" lon="6.3944">
        <ele>574.421</ele>
        <time>2013-01-05T11:57:12Z</time>
      </trkpt>
      <trkpt lat="43.57258" lon="6.39428">
        <ele>574.11285</ele>
        <time>2013-01-05T11:57:30Z</time>
      </trkpt>
      <trkpt lat="43.57259" lon="6.39414">
        <ele>573.1323</ele>
        <time>2013-01-05T11:58:00Z</time>
      </trkpt>
      <trkpt lat="43.57253" lon="6.39402">
        <ele>570.7982</ele>
        <time>2013-01-05T11:58:34Z</time>
      </trkpt>
      <trkpt lat="43.57246" lon="6.39391">
        <ele>569.65753</ele>
        <time>2013-01-05T11:58:43Z</time>
      </trkpt>
      <trkpt lat="43.57239" lon="6.39375">
        <ele>568.85583</ele>
        <time>2013-01-05T11:58:55Z</time>
      </trkpt>
      <trkpt lat="43.57233" lon="6.39366">
        <ele>569.1916</ele>
        <time>2013-01-05T11:59:04Z</time>
      </trkpt>
      <trkpt lat="43.57224" lon="6.39359">
        <ele>569.6376</ele>
        <time>2013-01-05T11:59:19Z</time>
      </trkpt>
      <trkpt lat="43.57217" lon="6.39351">
        <ele>568.7274</ele>
        <time>2013-01-05T11:59:31Z</time>
      </trkpt>
      <trkpt lat="43.57217" lon="6.39338">
        <ele>567.447</ele>
        <time>2013-01-05T11:59:40Z</time>
      </trkpt>
      <trkpt lat="43.57214" lon="6.39326">
        <ele>566.3646</ele>
        <time>2013-01-05T11:59:49Z</time>
      </trkpt>
      <trkpt lat="43.57211" lon="6.39312">
        <ele>565.8178</ele>
        <time>2013-01-05T11:59:58Z</time>
      </trkpt>
      <trkpt lat="43.5721" lon="6.39298">
        <ele>564.87494</ele>
        <time>2013-01-05T12:00:10Z</time>
      </trkpt>
      <trkpt lat="43.57208" lon="6.39285">
        <ele>564.1244</ele>
        <time>2013-01-05T12:00:19Z</time>
      </trkpt>
      <trkpt lat="43.57204" lon="6.3927">
        <ele>563.8155</ele>
        <time>2013-01-05T12:00:28Z</time>
      </trkpt>
      <trkpt lat="43.57201" lon="6.39258">
        <ele>563.10406</ele>
        <time>2013-01-05T12:00:40Z</time>
      </trkpt>
      <trkpt lat="43.57199" lon="6.39245">
        <ele>562.8444</ele>
        <time>2013-01-05T12:00:46Z</time>
      </trkpt>
      <trkpt lat="43.57199" lon="6.39232">
        <ele>562.8447</ele>
        <time>2013-01-05T12:00:52Z</time>
      </trkpt>
      <trkpt lat="43.57199" lon="6.39216">
        <ele>562.93475</ele>
        <time>2013-01-05T12:01:01Z</time>
      </trkpt>
      <trkpt lat="43.57199" lon="6.39202">
        <ele>563.1204</ele>
        <time>2013-01-05T12:01:10Z</time>
      </trkpt>
      <trkpt lat="43.57201" lon="6.39186">
        <ele>563.1477</ele>
        <time>2013-01-05T12:01:22Z</time>
      </trkpt>
      <trkpt lat="43.57203" lon="6.39171">
        <ele>562.84686</ele>
        <time>2013-01-05T12:01:34Z</time>
      </trkpt>
      <trkpt lat="43.57203" lon="6.39157">
        <ele>562.9463</ele>
        <time>2013-01-05T12:01:43Z</time>
      </trkpt>
      <trkpt lat="43.572" lon="6.39142">
        <ele>563.71216</ele>
        <time>2013-01-05T12:01:58Z</time>
      </trkpt>
      <trkpt lat="43.57195" lon="6.39126">
        <ele>565.01166</ele>
        <time>2013-01-05T12:02:10Z</time>
      </trkpt>
      <trkpt lat="43.57191" lon="6.39113">
        <ele>565.78125</ele>
        <time>2013-01-05T12:02:19Z</time>
      </trkpt>
      <trkpt lat="43.57188" lon="6.39101">
        <ele>565.9749</ele>
        <time>2013-01-05T12:02:31Z</time>
      </trkpt>
      <trkpt lat="43.57185" lon="6.39087">
        <ele>565.6494</ele>
        <time>2013-01-05T12:02:43Z</time>
      </trkpt>
      <trkpt lat="43.57182" lon="6.39073">
        <ele>565.35205</ele>
        <time>2013-01-05T12:02:55Z</time>
      </trkpt>
      <trkpt lat="43.57179" lon="6.39061">
        <ele>565.20215</ele>
        <time>2013-01-05T12:03:01Z</time>
      </trkpt>
      <trkpt lat="43.57174" lon="6.39046">
        <ele>565.01886</ele>
        <time>2013-01-05T12:03:10Z</time>
      </trkpt>
      <trkpt lat="43.5717" lon="6.39031">
        <ele>564.96063</ele>
        <time>2013-01-05T12:03:19Z</time>
      </trkpt>
      <trkpt lat="43.57168" lon="6.39018">
        <ele>564.5548</ele>
        <time>2013-01-05T12:03:28Z</time>
      </trkpt>
      <trkpt lat="43.57167" lon="6.39005">
        <ele>563.7828</ele>
        <time>2013-01-05T12:03:37Z</time>
      </trkpt>
      <trkpt lat="43.57168" lon="6.38992">
        <ele>563.1262</ele>
        <time>2013-01-05T12:03:46Z</time>
      </trkpt>
      <trkpt lat="43.5717" lon="6.38978">
        <ele>562.6474</ele>
        <time>2013-01-05T12:03:55Z</time>
      </trkpt>
      <trkpt lat="43.57175" lon="6.38967">
        <ele>562.18494</ele>
        <time>2013-01-05T12:04:04Z</time>
      </trkpt>
      <trkpt lat="43.57179" lon="6.38953">
        <ele>561.3311</ele>
        <time>2013-01-05T12:04:16Z</time>
      </trkpt>
      <trkpt lat="43.57182" lon="6.3894">
        <ele>561.0253</ele>
        <time>2013-01-05T12:04:25Z</time>
      </trkpt>
      <trkpt lat="43.57192" lon="6.38942">
        <ele>561.4882</ele>
        <time>2013-01-05T12:06:10Z</time>
      </trkpt>
      <trkpt lat="43.57198" lon="6.38953">
        <ele>561.7731</ele>
        <time>2013-01-05T12:06:28Z</time>
      </trkpt>
      <trkpt lat="43.57207" lon="6.38955">
        <ele>562.24524</ele>
        <time>2013-01-05T12:06:49Z</time>
      </trkpt>
      <trkpt lat="43.57215" lon="6.38964">
        <ele>563.4261</ele>
        <time>2013-01-05T12:07:10Z</time>
      </trkpt>
      <trkpt lat="43.57217" lon="6.38978">
        <ele>564.7657</ele>
        <time>2013-01-05T12:07:39Z</time>
      </trkpt>
      <trkpt lat="43.57227" lon="6.38979">
        <ele>565.0708</ele>
        <time>2013-01-05T12:08:03Z</time>
      </trkpt>
      <trkpt lat="43.57215" lon="6.38974">
        <ele>566.75934</ele>
        <time>2013-01-05T12:09:00Z</time>
      </trkpt>
      <trkpt lat="43.57224" lon="6.38969">
        <ele>569.40436</ele>
        <time>2013-01-05T12:10:03Z</time>
      </trkpt>
      <trkpt lat="43.5723" lon="6.38959">
        <ele>570.81433</ele>
        <time>2013-01-05T12:10:18Z</time>
      </trkpt>
      <trkpt lat="43.57224" lon="6.38969">
        <ele>574.1354</ele>
        <time>2013-01-05T12:11:33Z</time>
      </trkpt>
      <trkpt lat="43.57216" lon="6.38963">
        <ele>573.7259</ele>
        <time>2013-01-05T12:11:45Z</time>
      </trkpt>
      <trkpt lat="43.57208" lon="6.38955">
        <ele>572.34393</ele>
        <time>2013-01-05T12:12:03Z</time>
      </trkpt>
      <trkpt lat="43.572" lon="6.3895">
        <ele>571.39655</ele>
        <time>2013-01-05T12:12:12Z</time>
      </trkpt>
      <trkpt lat="43.57194" lon="6.38938">
        <ele>570.41016</ele>
        <time>2013-01-05T12:12:21Z</time>
      </trkpt>
      <trkpt lat="43.57188" lon="6.38925">
        <ele>568.71313</ele>
        <time>2013-01-05T12:12:36Z</time>
      </trkpt>
      <trkpt lat="43.57192" lon="6.38913">
        <ele>567.2453</ele>
        <time>2013-01-05T12:12:48Z</time>
      </trkpt>
      <trkpt lat="43.57202" lon="6.38909">
        <ele>566.0762</ele>
        <time>2013-01-05T12:13:00Z</time>
      </trkpt>
      <trkpt lat="43.5721" lon="6.389">
        <ele>565.29645</ele>
        <time>2013-01-05T12:13:06Z</time>
      </trkpt>
      <trkpt lat="43.57216" lon="6.38891">
        <ele>563.87933</ele>
        <time>2013-01-05T12:13:18Z</time>
      </trkpt>
      <trkpt lat="43.57222" lon="6.38879">
        <ele>561.78</ele>
        <time>2013-01-05T12:13:30Z</time>
      </trkpt>
      <trkpt lat="43.57233" lon="6.38878">
        <ele>560.5536</ele>
        <time>2013-01-05T12:13:39Z</time>
      </trkpt>
      <trkpt lat="43.57245" lon="6.38876">
        <ele>559.8801</ele>
        <time>2013-01-05T12:13:48Z</time>
      </trkpt>
      <trkpt lat="43.57256" lon="6.38877">
        <ele>559.01184</ele>
        <time>2013-01-05T12:13:57Z</time>
      </trkpt>
      <trkpt lat="43.57268" lon="6.38874">
        <ele>558.16455</ele>
        <time>2013-01-05T12:14:06Z</time>
      </trkpt>
      <trkpt lat="43.57277" lon="6.38863">
        <ele>556.8943</ele>
        <time>2013-01-05T12:14:15Z</time>
      </trkpt>
      <trkpt lat="43.57284" lon="6.38855">
        <ele>555.50397</ele>
        <time>2013-01-05T12:14:24Z</time>
      </trkpt>
      <trkpt lat="43.57288" lon="6.38843">
        <ele>554.6468</ele>
        <time>2013-01-05T12:14:30Z</time>
      </trkpt>
      <trkpt lat="43.57293" lon="6.38829">
        <ele>552.86224</ele>
        <time>2013-01-05T12:14:42Z</time>
      </trkpt>
      <trkpt lat="43.57294" lon="6.38815">
        <ele>550.60925</ele>
        <time>2013-01-05T12:14:57Z</time>
      </trkpt>
      <trkpt lat="43.57284" lon="6.38808">
        <ele>547.7668</ele>
        <time>2013-01-05T12:15:12Z</time>
      </trkpt>
      <trkpt lat="43.57275" lon="6.38808">
        <ele>545.96265</ele>
        <time>2013-01-05T12:15:21Z</time>
      </trkpt>
      <trkpt lat="43.57264" lon="6.38807">
        <ele>543.73505</ele>
        <time>2013-01-05T12:15:30Z</time>
      </trkpt>
      <trkpt lat="43.57254" lon="6.38809">
        <ele>540.6477</ele>
        <time>2013-01-05T12:15:54Z</time>
      </trkpt>
      <trkpt lat="43.5725" lon="6.38795">
        <ele>542.6623</ele>
        <time>2013-01-05T12:17:21Z</time>
      </trkpt>
      <trkpt lat="43.57249" lon="6.38781">
        <ele>543.09814</ele>
        <time>2013-01-05T12:17:36Z</time>
      </trkpt>
      <trkpt lat="43.5724" lon="6.38787">
        <ele>540.41113</ele>
        <time>2013-01-05T12:18:24Z</time>
      </trkpt>
      <trkpt lat="43.57232" lon="6.38793">
        <ele>539.83044</ele>
        <time>2013-01-05T12:18:54Z</time>
      </trkpt>
      <trkpt lat="43.57237" lon="6.38782">
        <ele>539.589</ele>
        <time>2013-01-05T12:19:15Z</time>
      </trkpt>
      <trkpt lat="43.57245" lon="6.38792">
        <ele>536.801</ele>
        <time>2013-01-05T12:19:39Z</time>
      </trkpt>
      <trkpt lat="43.57255" lon="6.38797">
        <ele>534.0212</ele>
        <time>2013-01-05T12:19:57Z</time>
      </trkpt>
      <trkpt lat="43.57264" lon="6.38797">
        <ele>532.4731</ele>
        <time>2013-01-05T12:20:27Z</time>
      </trkpt>
      <trkpt lat="43.57274" lon="6.388">
        <ele>532.7484</ele>
        <time>2013-01-05T12:20:48Z</time>
      </trkpt>
      <trkpt lat="43.57284" lon="6.38796">
        <ele>533.61993</ele>
        <time>2013-01-05T12:21:06Z</time>
      </trkpt>
      <trkpt lat="43.5729" lon="6.38786">
        <ele>534.98724</ele>
        <time>2013-01-05T12:21:18Z</time>
      </trkpt>
      <trkpt lat="43.57287" lon="6.38797">
        <ele>534.90576</ele>
        <time>2013-01-05T12:23:30Z</time>
      </trkpt>
      <trkpt lat="43.57281" lon="6.38808">
        <ele>541.9663</ele>
        <time>2013-01-05T12:24:36Z</time>
      </trkpt>
      <trkpt lat="43.5727" lon="6.38809">
        <ele>542.0875</ele>
        <time>2013-01-05T12:24:48Z</time>
      </trkpt>
      <trkpt lat="43.5726" lon="6.38812">
        <ele>541.78625</ele>
        <time>2013-01-05T12:24:57Z</time>
      </trkpt>
      <trkpt lat="43.5725" lon="6.38811">
        <ele>541.0237</ele>
        <time>2013-01-05T12:25:09Z</time>
      </trkpt>
      <trkpt lat="43.57253" lon="6.38824">
        <ele>540.4257</ele>
        <time>2013-01-05T12:25:42Z</time>
      </trkpt>
      <trkpt lat="43.57254" lon="6.38838">
        <ele>540.5623</ele>
        <time>2013-01-05T12:26:05Z</time>
      </trkpt>
      <trkpt lat="43.57257" lon="6.38851">
        <ele>539.5851</ele>
        <time>2013-01-05T12:26:29Z</time>
      </trkpt>
      <trkpt lat="43.57253" lon="6.38863">
        <ele>538.2984</ele>
        <time>2013-01-05T12:26:47Z</time>
      </trkpt>
      <trkpt lat="43.57259" lon="6.38853">
        <ele>528.4223</ele>
        <time>2013-01-05T12:27:20Z</time>
      </trkpt>
      <trkpt lat="43.57268" lon="6.3886">
        <ele>532.5634</ele>
        <time>2013-01-05T12:27:53Z</time>
      </trkpt>
      <trkpt lat="43.57277" lon="6.38862">
        <ele>534.5808</ele>
        <time>2013-01-05T12:28:17Z</time>
      </trkpt>
      <trkpt lat="43.57287" lon="6.38858">
        <ele>537.4237</ele>
        <time>2013-01-05T12:28:47Z</time>
      </trkpt>
      <trkpt lat="43.5729" lon="6.38846">
        <ele>537.56</ele>
        <time>2013-01-05T12:28:59Z</time>
      </trkpt>
      <trkpt lat="43.57294" lon="6.38833">
        <ele>538.007</ele>
        <time>2013-01-05T12:29:14Z</time>
      </trkpt>
      <trkpt lat="43.57293" lon="6.38818">
        <ele>538.47327</ele>
        <time>2013-01-05T12:29:32Z</time>
      </trkpt>
      <trkpt lat="43.57287" lon="6.38809">
        <ele>538.8137</ele>
        <time>2013-01-05T12:30:14Z</time>
      </trkpt>
      <trkpt lat="43.5729" lon="6.38794">
        <ele>538.007</ele>
        <time>2013-01-05T12:30:38Z</time>
      </trkpt>
      <trkpt lat="43.57294" lon="6.38782">
        <ele>538.222</ele>
        <time>2013-01-05T12:31:11Z</time>
      </trkpt>
      <trkpt lat="43.57304" lon="6.38781">
        <ele>541.8525</ele>
        <time>2013-01-05T12:32:38Z</time>
      </trkpt>
      <trkpt lat="43.57311" lon="6.38788">
        <ele>543.4546</ele>
        <time>2013-01-05T12:33:14Z</time>
      </trkpt>
      <trkpt lat="43.57315" lon="6.38777">
        <ele>540.7654</ele>
        <time>2013-01-05T12:33:59Z</time>
      </trkpt>
      <trkpt lat="43.57304" lon="6.38776">
        <ele>541.6399</ele>
        <time>2013-01-05T12:35:22Z</time>
      </trkpt>
      <trkpt lat="43.57294" lon="6.38775">
        <ele>541.8358</ele>
        <time>2013-01-05T12:35:37Z</time>
      </trkpt>
      <trkpt lat="43.57284" lon="6.38778">
        <ele>541.5941</ele>
        <time>2013-01-05T12:35:49Z</time>
      </trkpt>
      <trkpt lat="43.57274" lon="6.38783">
        <ele>541.15717</ele>
        <time>2013-01-05T12:36:07Z</time>
      </trkpt>
      <trkpt lat="43.57267" lon="6.3879">
        <ele>540.77264</ele>
        <time>2013-01-05T12:36:19Z</time>
      </trkpt>
      <trkpt lat="43.57257" lon="6.38787">
        <ele>540.0085</ele>
        <time>2013-01-05T12:36:43Z</time>
      </trkpt>
      <trkpt lat="43.57253" lon="6.38776">
        <ele>539.2369</ele>
        <time>2013-01-05T12:37:09Z</time>
      </trkpt>
      <trkpt lat="43.5725" lon="6.38763">
        <ele>538.3614</ele>
        <time>2013-01-05T12:37:30Z</time>
      </trkpt>
      <trkpt lat="43.57244" lon="6.38773">
        <ele>542.05927</ele>
        <time>2013-01-05T12:38:36Z</time>
      </trkpt>
      <trkpt lat="43.57235" lon="6.38777">
        <ele>541.80634</ele>
        <time>2013-01-05T12:38:57Z</time>
      </trkpt>
      <trkpt lat="43.57228" lon="6.38786">
        <ele>539.15204</ele>
        <time>2013-01-05T12:40:06Z</time>
      </trkpt>
      <trkpt lat="43.57231" lon="6.38773">
        <ele>539.3255</ele>
        <time>2013-01-05T12:40:45Z</time>
      </trkpt>
      <trkpt lat="43.57226" lon="6.38762">
        <ele>537.44305</ele>
        <time>2013-01-05T12:41:39Z</time>
      </trkpt>
      <trkpt lat="43.57221" lon="6.38772">
        <ele>538.1921</ele>
        <time>2013-01-05T12:44:15Z</time>
      </trkpt>
      <trkpt lat="43.57212" lon="6.38772">
        <ele>537.4937</ele>
        <time>2013-01-05T12:44:51Z</time>
      </trkpt>
      <trkpt lat="43.57222" lon="6.3877">
        <ele>534.1041</ele>
        <time>2013-01-05T12:46:54Z</time>
      </trkpt>
      <trkpt lat="43.5723" lon="6.38775">
        <ele>534.388</ele>
        <time>2013-01-05T12:47:18Z</time>
      </trkpt>
      <trkpt lat="43.57238" lon="6.38782">
        <ele>534.012</ele>
        <time>2013-01-05T12:47:48Z</time>
      </trkpt>
      <trkpt lat="43.57245" lon="6.38792">
        <ele>533.87384</ele>
        <time>2013-01-05T12:48:06Z</time>
      </trkpt>
      <trkpt lat="43.57255" lon="6.38797">
        <ele>533.8424</ele>
        <time>2013-01-05T12:48:56Z</time>
      </trkpt>
      <trkpt lat="43.57264" lon="6.38795">
        <ele>534.37964</ele>
        <time>2013-01-05T12:51:35Z</time>
      </trkpt>
      <trkpt lat="43.57257" lon="6.38788">
        <ele>531.54724</ele>
        <time>2013-01-05T12:51:56Z</time>
      </trkpt>
      <trkpt lat="43.57248" lon="6.38793">
        <ele>530.58905</ele>
        <time>2013-01-05T12:52:17Z</time>
      </trkpt>
      <trkpt lat="43.57257" lon="6.38794">
        <ele>531.40686</ele>
        <time>2013-01-05T12:53:05Z</time>
      </trkpt>
      <trkpt lat="43.57248" lon="6.38791">
        <ele>531.72296</ele>
        <time>2013-01-05T12:53:59Z</time>
      </trkpt>
      <trkpt lat="43.57245" lon="6.38804">
        <ele>530.1024</ele>
        <time>2013-01-05T12:54:56Z</time>
      </trkpt>
      <trkpt lat="43.5725" lon="6.38792">
        <ele>531.8114</ele>
        <time>2013-01-05T12:56:35Z</time>
      </trkpt>
      <trkpt lat="43.57247" lon="6.38804">
        <ele>530.5365</ele>
        <time>2013-01-05T12:57:50Z</time>
      </trkpt>
      <trkpt lat="43.57244" lon="6.38791">
        <ele>531.20306</ele>
        <time>2013-01-05T12:58:05Z</time>
      </trkpt>
      <trkpt lat="43.57253" lon="6.38781">
        <ele>529.5549</ele>
        <time>2013-01-05T12:58:29Z</time>
      </trkpt>
      <trkpt lat="43.57262" lon="6.38783">
        <ele>530.17706</ele>
        <time>2013-01-05T12:58:50Z</time>
      </trkpt>
      <trkpt lat="43.57252" lon="6.38782">
        <ele>529.283</ele>
        <time>2013-01-05T13:01:35Z</time>
      </trkpt>
      <trkpt lat="43.57249" lon="6.38795">
        <ele>531.57733</ele>
        <time>2013-01-05T13:02:17Z</time>
      </trkpt>
      <trkpt lat="43.57251" lon="6.38808">
        <ele>529.7053</ele>
        <time>2013-01-05T13:03:50Z</time>
      </trkpt>
      <trkpt lat="43.57255" lon="6.38796">
        <ele>523.5482</ele>
        <time>2013-01-05T13:04:47Z</time>
      </trkpt>
      <trkpt lat="43.57246" lon="6.388">
        <ele>524.41724</ele>
        <time>2013-01-05T13:05:29Z</time>
      </trkpt>
      <trkpt lat="43.57253" lon="6.38812">
        <ele>527.1689</ele>
        <time>2013-01-05T13:05:56Z</time>
      </trkpt>
      <trkpt lat="43.57265" lon="6.38809">
        <ele>528.9208</ele>
        <time>2013-01-05T13:06:08Z</time>
      </trkpt>
      <trkpt lat="43.57275" lon="6.38811">
        <ele>530.0823</ele>
        <time>2013-01-05T13:06:20Z</time>
      </trkpt>
      <trkpt lat="43.57285" lon="6.38813">
        <ele>531.22614</ele>
        <time>2013-01-05T13:06:38Z</time>
      </trkpt>
      <trkpt lat="43.57295" lon="6.38814">
        <ele>534.10187</ele>
        <time>2013-01-05T13:06:59Z</time>
      </trkpt>
      <trkpt lat="43.57289" lon="6.38828">
        <ele>536.67944</ele>
        <time>2013-01-05T13:07:14Z</time>
      </trkpt>
      <trkpt lat="43.57285" lon="6.38839">
        <ele>539.8896</ele>
        <time>2013-01-05T13:07:32Z</time>
      </trkpt>
      <trkpt lat="43.57285" lon="6.38853">
        <ele>542.8844</ele>
        <time>2013-01-05T13:07:44Z</time>
      </trkpt>
      <trkpt lat="43.5728" lon="6.38864">
        <ele>544.97705</ele>
        <time>2013-01-05T13:07:56Z</time>
      </trkpt>
      <trkpt lat="43.57271" lon="6.38874">
        <ele>547.23834</ele>
        <time>2013-01-05T13:08:14Z</time>
      </trkpt>
      <trkpt lat="43.57262" lon="6.38879">
        <ele>548.30664</ele>
        <time>2013-01-05T13:08:23Z</time>
      </trkpt>
      <trkpt lat="43.57251" lon="6.38875">
        <ele>549.85223</ele>
        <time>2013-01-05T13:08:35Z</time>
      </trkpt>
      <trkpt lat="43.57241" lon="6.38879">
        <ele>551.3567</ele>
        <time>2013-01-05T13:08:47Z</time>
      </trkpt>
      <trkpt lat="43.57232" lon="6.38884">
        <ele>552.2456</ele>
        <time>2013-01-05T13:08:59Z</time>
      </trkpt>
      <trkpt lat="43.57229" lon="6.38896">
        <ele>552.7476</ele>
        <time>2013-01-05T13:09:20Z</time>
      </trkpt>
      <trkpt lat="43.57239" lon="6.389">
        <ele>553.5785</ele>
        <time>2013-01-05T13:10:02Z</time>
      </trkpt>
      <trkpt lat="43.57247" lon="6.38906">
        <ele>554.3044</ele>
        <time>2013-01-05T13:10:17Z</time>
      </trkpt>
      <trkpt lat="43.57257" lon="6.38912">
        <ele>555.53925</ele>
        <time>2013-01-05T13:10:32Z</time>
      </trkpt>
      <trkpt lat="43.57266" lon="6.38916">
        <ele>557.1096</ele>
        <time>2013-01-05T13:10:57Z</time>
      </trkpt>
      <trkpt lat="43.57275" lon="6.38911">
        <ele>558.0878</ele>
        <time>2013-01-05T13:11:57Z</time>
      </trkpt>
      <trkpt lat="43.57285" lon="6.38916">
        <ele>560.97266</ele>
        <time>2013-01-05T13:12:42Z</time>
      </trkpt>
      <trkpt lat="43.57294" lon="6.38917">
        <ele>561.74713</ele>
        <time>2013-01-05T13:13:12Z</time>
      </trkpt>
      <trkpt lat="43.57299" lon="6.38906">
        <ele>564.3441</ele>
        <time>2013-01-05T13:13:48Z</time>
      </trkpt>
      <trkpt lat="43.5729" lon="6.38911">
        <ele>565.50415</ele>
        <time>2013-01-05T13:14:12Z</time>
      </trkpt>
      <trkpt lat="43.57281" lon="6.38916">
        <ele>564.69434</ele>
        <time>2013-01-05T13:14:27Z</time>
      </trkpt>
      <trkpt lat="43.5727" lon="6.38916">
        <ele>563.55176</ele>
        <time>2013-01-05T13:14:48Z</time>
      </trkpt>
      <trkpt lat="43.57261" lon="6.38912">
        <ele>562.64484</ele>
        <time>2013-01-05T13:15:03Z</time>
      </trkpt>
      <trkpt lat="43.57254" lon="6.38905">
        <ele>561.66125</ele>
        <time>2013-01-05T13:15:15Z</time>
      </trkpt>
      <trkpt lat="43.57244" lon="6.38898">
        <ele>560.9448</ele>
        <time>2013-01-05T13:15:33Z</time>
      </trkpt>
      <trkpt lat="43.57235" lon="6.38893">
        <ele>560.936</ele>
        <time>2013-01-05T13:15:42Z</time>
      </trkpt>
      <trkpt lat="43.57226" lon="6.38892">
        <ele>561.21356</ele>
        <time>2013-01-05T13:15:54Z</time>
      </trkpt>
      <trkpt lat="43.57219" lon="6.38901">
        <ele>561.08295</ele>
        <time>2013-01-05T13:16:06Z</time>
      </trkpt>
      <trkpt lat="43.5721" lon="6.38907">
        <ele>561.35455</ele>
        <time>2013-01-05T13:16:18Z</time>
      </trkpt>
      <trkpt lat="43.57201" lon="6.3891">
        <ele>562.25336</ele>
        <time>2013-01-05T13:16:30Z</time>
      </trkpt>
      <trkpt lat="43.5719" lon="6.38913">
        <ele>563.20355</ele>
        <time>2013-01-05T13:16:39Z</time>
      </trkpt>
      <trkpt lat="43.57186" lon="6.38924">
        <ele>564.7472</ele>
        <time>2013-01-05T13:16:51Z</time>
      </trkpt>
      <trkpt lat="43.57182" lon="6.38937">
        <ele>565.08606</ele>
        <time>2013-01-05T13:17:03Z</time>
      </trkpt>
      <trkpt lat="43.57176" lon="6.3895">
        <ele>564.9892</ele>
        <time>2013-01-05T13:17:15Z</time>
      </trkpt>
      <trkpt lat="43.57173" lon="6.38962">
        <ele>565.1314</ele>
        <time>2013-01-05T13:17:27Z</time>
      </trkpt>
      <trkpt lat="43.57167" lon="6.38978">
        <ele>565.40283</ele>
        <time>2013-01-05T13:17:39Z</time>
      </trkpt>
      <trkpt lat="43.57167" lon="6.38995">
        <ele>564.67035</ele>
        <time>2013-01-05T13:17:51Z</time>
      </trkpt>
      <trkpt lat="43.57169" lon="6.39011">
        <ele>563.6371</ele>
        <time>2013-01-05T13:18:03Z</time>
      </trkpt>
      <trkpt lat="43.57172" lon="6.39025">
        <ele>562.9227</ele>
        <time>2013-01-05T13:18:12Z</time>
      </trkpt>
      <trkpt lat="43.57176" lon="6.39036">
        <ele>562.0896</ele>
        <time>2013-01-05T13:18:21Z</time>
      </trkpt>
      <trkpt lat="43.57181" lon="6.39049">
        <ele>561.34296</ele>
        <time>2013-01-05T13:18:33Z</time>
      </trkpt>
      <trkpt lat="43.57185" lon="6.39063">
        <ele>561.35175</ele>
        <time>2013-01-05T13:18:45Z</time>
      </trkpt>
      <trkpt lat="43.57188" lon="6.39079">
        <ele>561.38153</ele>
        <time>2013-01-05T13:18:57Z</time>
      </trkpt>
      <trkpt lat="43.5719" lon="6.39093">
        <ele>561.6617</ele>
        <time>2013-01-05T13:19:09Z</time>
      </trkpt>
      <trkpt lat="43.57194" lon="6.39108">
        <ele>562.1488</ele>
        <time>2013-01-05T13:19:18Z</time>
      </trkpt>
      <trkpt lat="43.57197" lon="6.39123">
        <ele>562.4571</ele>
        <time>2013-01-05T13:19:27Z</time>
      </trkpt>
      <trkpt lat="43.572" lon="6.39137">
        <ele>562.7373</ele>
        <time>2013-01-05T13:19:39Z</time>
      </trkpt>
      <trkpt lat="43.57203" lon="6.39149">
        <ele>563.0903</ele>
        <time>2013-01-05T13:19:51Z</time>
      </trkpt>
      <trkpt lat="43.57203" lon="6.39164">
        <ele>563.8082</ele>
        <time>2013-01-05T13:20:03Z</time>
      </trkpt>
      <trkpt lat="43.572" lon="6.39178">
        <ele>564.0891</ele>
        <time>2013-01-05T13:20:12Z</time>
      </trkpt>
      <trkpt lat="43.57197" lon="6.3919">
        <ele>564.68085</ele>
        <time>2013-01-05T13:20:21Z</time>
      </trkpt>
      <trkpt lat="43.57197" lon="6.39205">
        <ele>565.5153</ele>
        <time>2013-01-05T13:20:30Z</time>
      </trkpt>
      <trkpt lat="43.57198" lon="6.39218">
        <ele>566.39575</ele>
        <time>2013-01-05T13:20:42Z</time>
      </trkpt>
      <trkpt lat="43.57197" lon="6.39234">
        <ele>566.8309</ele>
        <time>2013-01-05T13:20:54Z</time>
      </trkpt>
      <trkpt lat="43.57201" lon="6.39249">
        <ele>566.64453</ele>
        <time>2013-01-05T13:21:06Z</time>
      </trkpt>
      <trkpt lat="43.57205" lon="6.39263">
        <ele>566.0528</ele>
        <time>2013-01-05T13:21:18Z</time>
      </trkpt>
      <trkpt lat="43.57207" lon="6.39276">
        <ele>565.6314</ele>
        <time>2013-01-05T13:21:27Z</time>
      </trkpt>
      <trkpt lat="43.57209" lon="6.39292">
        <ele>565.00336</ele>
        <time>2013-01-05T13:21:39Z</time>
      </trkpt>
      <trkpt lat="43.57209" lon="6.39307">
        <ele>564.8618</ele>
        <time>2013-01-05T13:21:51Z</time>
      </trkpt>
      <trkpt lat="43.57212" lon="6.39321">
        <ele>564.8366</ele>
        <time>2013-01-05T13:22:00Z</time>
      </trkpt>
      <trkpt lat="43.57216" lon="6.39335">
        <ele>563.9542</ele>
        <time>2013-01-05T13:22:12Z</time>
      </trkpt>
      <trkpt lat="43.57214" lon="6.39348">
        <ele>563.36786</ele>
        <time>2013-01-05T13:22:21Z</time>
      </trkpt>
      <trkpt lat="43.57219" lon="6.39361">
        <ele>562.9198</ele>
        <time>2013-01-05T13:22:33Z</time>
      </trkpt>
      <trkpt lat="43.57227" lon="6.39368">
        <ele>562.9014</ele>
        <time>2013-01-05T13:22:45Z</time>
      </trkpt>
      <trkpt lat="43.57235" lon="6.39377">
        <ele>563.41364</ele>
        <time>2013-01-05T13:22:57Z</time>
      </trkpt>
      <trkpt lat="43.57245" lon="6.39385">
        <ele>563.8976</ele>
        <time>2013-01-05T13:23:09Z</time>
      </trkpt>
      <trkpt lat="43.57253" lon="6.39393">
        <ele>565.0116</ele>
        <time>2013-01-05T13:23:27Z</time>
      </trkpt>
      <trkpt lat="43.57255" lon="6.39405">
        <ele>566.7269</ele>
        <time>2013-01-05T13:23:42Z</time>
      </trkpt>
      <trkpt lat="43.57258" lon="6.39418">
        <ele>567.5886</ele>
        <time>2013-01-05T13:24:12Z</time>
      </trkpt>
      <trkpt lat="43.57259" lon="6.39433">
        <ele>567.7235</ele>
        <time>2013-01-05T13:24:33Z</time>
      </trkpt>
      <trkpt lat="43.57262" lon="6.39447">
        <ele>568.67755</ele>
        <time>2013-01-05T13:24:45Z</time>
      </trkpt>
      <trkpt lat="43.57262" lon="6.3946">
        <ele>570.2028</ele>
        <time>2013-01-05T13:24:57Z</time>
      </trkpt>
      <trkpt lat="43.57266" lon="6.39471">
        <ele>571.2094</ele>
        <time>2013-01-05T13:25:12Z</time>
      </trkpt>
      <trkpt lat="43.57269" lon="6.39484">
        <ele>572.26807</ele>
        <time>2013-01-05T13:25:24Z</time>
      </trkpt>
      <trkpt lat="43.57273" lon="6.39497">
        <ele>573.12024</ele>
        <time>2013-01-05T13:25:36Z</time>
      </trkpt>
      <trkpt lat="43.57279" lon="6.39509">
        <ele>574.2912</ele>
        <time>2013-01-05T13:25:48Z</time>
      </trkpt>
      <trkpt lat="43.57284" lon="6.39522">
        <ele>575.187</ele>
        <time>2013-01-05T13:26:00Z</time>
      </trkpt>
      <trkpt lat="43.57289" lon="6.39535">
        <ele>576.2754</ele>
        <time>2013-01-05T13:26:15Z</time>
      </trkpt>
      <trkpt lat="43.57293" lon="6.39549">
        <ele>576.98676</ele>
        <time>2013-01-05T13:26:27Z</time>
      </trkpt>
      <trkpt lat="43.57297" lon="6.39563">
        <ele>577.7563</ele>
        <time>2013-01-05T13:26:39Z</time>
      </trkpt>
      <trkpt lat="43.57303" lon="6.39574">
        <ele>578.1733</ele>
        <time>2013-01-05T13:26:51Z</time>
      </trkpt>
      <trkpt lat="43.57308" lon="6.39584">
        <ele>578.63654</ele>
        <time>2013-01-05T13:27:03Z</time>
      </trkpt>
      <trkpt lat="43.57318" lon="6.39583">
        <ele>578.746</ele>
        <time>2013-01-05T13:27:18Z</time>
      </trkpt>
      <trkpt lat="43.57328" lon="6.39584">
        <ele>577.72144</ele>
        <time>2013-01-05T13:27:36Z</time>
      </trkpt>
      <trkpt lat="43.57336" lon="6.39577">
        <ele>577.41125</ele>
        <time>2013-01-05T13:27:45Z</time>
      </trkpt>
      <trkpt lat="43.57347" lon="6.39575">
        <ele>577.0462</ele>
        <time>2013-01-05T13:27:54Z</time>
      </trkpt>
      <trkpt lat="43.57356" lon="6.3957">
        <ele>575.8163</ele>
        <time>2013-01-05T13:28:06Z</time>
      </trkpt>
      <trkpt lat="43.57365" lon="6.39575">
        <ele>574.4035</ele>
        <time>2013-01-05T13:28:18Z</time>
      </trkpt>
      <trkpt lat="43.57375" lon="6.39577">
        <ele>573.8636</ele>
        <time>2013-01-05T13:28:27Z</time>
      </trkpt>
      <trkpt lat="43.57386" lon="6.39578">
        <ele>574.12274</ele>
        <time>2013-01-05T13:28:36Z</time>
      </trkpt>
      <trkpt lat="43.57396" lon="6.39578">
        <ele>574.2747</ele>
        <time>2013-01-05T13:28:45Z</time>
      </trkpt>
      <trkpt lat="43.57404" lon="6.39571">
        <ele>574.3854</ele>
        <time>2013-01-05T13:28:54Z</time>
      </trkpt>
      <trkpt lat="43.5741" lon="6.39561">
        <ele>574.57104</ele>
        <time>2013-01-05T13:29:03Z</time>
      </trkpt>
      <trkpt lat="43.57418" lon="6.39553">
        <ele>574.6323</ele>
        <time>2013-01-05T13:29:12Z</time>
      </trkpt>
      <trkpt lat="43.57427" lon="6.39543">
        <ele>574.5646</ele>
        <time>2013-01-05T13:29:24Z</time>
      </trkpt>
      <trkpt lat="43.57434" lon="6.39531">
        <ele>574.1532</ele>
        <time>2013-01-05T13:29:33Z</time>
      </trkpt>
      <trkpt lat="43.57442" lon="6.39521">
        <ele>574.1053</ele>
        <time>2013-01-05T13:29:42Z</time>
      </trkpt>
      <trkpt lat="43.5745" lon="6.39515">
        <ele>574.25604</ele>
        <time>2013-01-05T13:29:48Z</time>
      </trkpt>
      <trkpt lat="43.57449" lon="6.395">
        <ele>575.62933</ele>
        <time>2013-01-05T13:30:00Z</time>
      </trkpt>
      <trkpt lat="43.57447" lon="6.39487">
        <ele>577.68823</ele>
        <time>2013-01-05T13:30:12Z</time>
      </trkpt>
      <trkpt lat="43.57445" lon="6.39473">
        <ele>578.4645</ele>
        <time>2013-01-05T13:30:24Z</time>
      </trkpt>
      <trkpt lat="43.57442" lon="6.39459">
        <ele>579.5361</ele>
        <time>2013-01-05T13:31:03Z</time>
      </trkpt>
      <trkpt lat="43.57449" lon="6.39449">
        <ele>579.13354</ele>
        <time>2013-01-05T13:32:03Z</time>
      </trkpt>
      <trkpt lat="43.57457" lon="6.39454">
        <ele>575.7681</ele>
        <time>2013-01-05T13:33:26Z</time>
      </trkpt>
      <trkpt lat="43.57445" lon="6.39454">
        <ele>576.106</ele>
        <time>2013-01-05T13:34:02Z</time>
      </trkpt>
      <trkpt lat="43.57442" lon="6.39466">
        <ele>577.80927</ele>
        <time>2013-01-05T13:34:53Z</time>
      </trkpt>
      <trkpt lat="43.57439" lon="6.39478">
        <ele>577.4213</ele>
        <time>2013-01-05T13:35:29Z</time>
      </trkpt>
      <trkpt lat="43.57437" lon="6.39495">
        <ele>576.9513</ele>
        <time>2013-01-05T13:35:41Z</time>
      </trkpt>
      <trkpt lat="43.57436" lon="6.39509">
        <ele>576.61725</ele>
        <time>2013-01-05T13:35:53Z</time>
      </trkpt>
      <trkpt lat="43.57432" lon="6.39524">
        <ele>576.1172</ele>
        <time>2013-01-05T13:36:05Z</time>
      </trkpt>
      <trkpt lat="43.57426" lon="6.39537">
        <ele>575.4439</ele>
        <time>2013-01-05T13:36:20Z</time>
      </trkpt>
      <trkpt lat="43.57418" lon="6.39546">
        <ele>574.9642</ele>
        <time>2013-01-05T13:36:32Z</time>
      </trkpt>
      <trkpt lat="43.57412" lon="6.39556">
        <ele>574.7687</ele>
        <time>2013-01-05T13:36:38Z</time>
      </trkpt>
      <trkpt lat="43.57404" lon="6.39565">
        <ele>574.77734</ele>
        <time>2013-01-05T13:36:47Z</time>
      </trkpt>
      <trkpt lat="43.57394" lon="6.39573">
        <ele>575.18225</ele>
        <time>2013-01-05T13:36:59Z</time>
      </trkpt>
      <trkpt lat="43.57384" lon="6.39574">
        <ele>575.405</ele>
        <time>2013-01-05T13:37:11Z</time>
      </trkpt>
      <trkpt lat="43.57372" lon="6.39573">
        <ele>576.17444</ele>
        <time>2013-01-05T13:37:23Z</time>
      </trkpt>
      <trkpt lat="43.57363" lon="6.39569">
        <ele>576.58905</ele>
        <time>2013-01-05T13:37:29Z</time>
      </trkpt>
      <trkpt lat="43.57355" lon="6.39566">
        <ele>577.55145</ele>
        <time>2013-01-05T13:37:41Z</time>
      </trkpt>
      <trkpt lat="43.57346" lon="6.39571">
        <ele>578.8335</ele>
        <time>2013-01-05T13:37:56Z</time>
      </trkpt>
      <trkpt lat="43.57338" lon="6.39576">
        <ele>579.1661</ele>
        <time>2013-01-05T13:38:02Z</time>
      </trkpt>
      <trkpt lat="43.57327" lon="6.39583">
        <ele>580.1185</ele>
        <time>2013-01-05T13:38:14Z</time>
      </trkpt>
      <trkpt lat="43.57315" lon="6.39583">
        <ele>580.88635</ele>
        <time>2013-01-05T13:38:29Z</time>
      </trkpt>
      <trkpt lat="43.57304" lon="6.39584">
        <ele>580.98676</ele>
        <time>2013-01-05T13:38:38Z</time>
      </trkpt>
      <trkpt lat="43.57304" lon="6.39598">
        <ele>580.3149</ele>
        <time>2013-01-05T13:38:59Z</time>
      </trkpt>
      <trkpt lat="43.573" lon="6.3961">
        <ele>579.7162</ele>
        <time>2013-01-05T13:39:14Z</time>
      </trkpt>
      <trkpt lat="43.57297" lon="6.39623">
        <ele>579.57385</ele>
        <time>2013-01-05T13:39:23Z</time>
      </trkpt>
      <trkpt lat="43.57292" lon="6.39635">
        <ele>579.92346</ele>
        <time>2013-01-05T13:39:59Z</time>
      </trkpt>
      <trkpt lat="43.57287" lon="6.39645">
        <ele>580.5073</ele>
        <time>2013-01-05T13:40:29Z</time>
      </trkpt>
      <trkpt lat="43.5729" lon="6.39634">
        <ele>580.98914</ele>
        <time>2013-01-05T13:41:02Z</time>
      </trkpt>
      <trkpt lat="43.57294" lon="6.3962">
        <ele>578.9207</ele>
        <time>2013-01-05T13:41:20Z</time>
      </trkpt>
      <trkpt lat="43.573" lon="6.39608">
        <ele>577.53064</ele>
        <time>2013-01-05T13:41:38Z</time>
      </trkpt>
      <trkpt lat="43.573" lon="6.39595">
        <ele>577.97406</ele>
        <time>2013-01-05T13:41:53Z</time>
      </trkpt>
      <trkpt lat="43.57302" lon="6.39581">
        <ele>577.9483</ele>
        <time>2013-01-05T13:42:05Z</time>
      </trkpt>
      <trkpt lat="43.57301" lon="6.39568">
        <ele>577.7009</ele>
        <time>2013-01-05T13:42:14Z</time>
      </trkpt>
      <trkpt lat="43.57292" lon="6.39558">
        <ele>577.64343</ele>
        <time>2013-01-05T13:42:23Z</time>
      </trkpt>
      <trkpt lat="43.57288" lon="6.39546">
        <ele>577.61163</ele>
        <time>2013-01-05T13:42:41Z</time>
      </trkpt>
      <trkpt lat="43.57284" lon="6.39534">
        <ele>577.76544</ele>
        <time>2013-01-05T13:42:59Z</time>
      </trkpt>
      <trkpt lat="43.5728" lon="6.39522">
        <ele>577.7228</ele>
        <time>2013-01-05T13:43:08Z</time>
      </trkpt>
      <trkpt lat="43.57275" lon="6.39509">
        <ele>576.8575</ele>
        <time>2013-01-05T13:43:20Z</time>
      </trkpt>
      <trkpt lat="43.5727" lon="6.39496">
        <ele>575.5419</ele>
        <time>2013-01-05T13:43:32Z</time>
      </trkpt>
      <trkpt lat="43.57265" lon="6.39484">
        <ele>573.6669</ele>
        <time>2013-01-05T13:43:44Z</time>
      </trkpt>
      <trkpt lat="43.57256" lon="6.39481">
        <ele>571.03125</ele>
        <time>2013-01-05T13:43:59Z</time>
      </trkpt>
      <trkpt lat="43.57247" lon="6.39485">
        <ele>569.7455</ele>
        <time>2013-01-05T13:44:11Z</time>
      </trkpt>
      <trkpt lat="43.57237" lon="6.39491">
        <ele>569.4141</ele>
        <time>2013-01-05T13:44:23Z</time>
      </trkpt>
      <trkpt lat="43.57223" lon="6.39495">
        <ele>569.43024</ele>
        <time>2013-01-05T13:44:32Z</time>
      </trkpt>
      <trkpt lat="43.57213" lon="6.39501">
        <ele>568.9903</ele>
        <time>2013-01-05T13:44:44Z</time>
      </trkpt>
      <trkpt lat="43.57204" lon="6.39508">
        <ele>568.6563</ele>
        <time>2013-01-05T13:44:53Z</time>
      </trkpt>
      <trkpt lat="43.57195" lon="6.39514">
        <ele>568.764</ele>
        <time>2013-01-05T13:45:05Z</time>
      </trkpt>
      <trkpt lat="43.57187" lon="6.39522">
        <ele>568.9426</ele>
        <time>2013-01-05T13:45:14Z</time>
      </trkpt>
      <trkpt lat="43.57176" lon="6.39526">
        <ele>569.00006</ele>
        <time>2013-01-05T13:45:23Z</time>
      </trkpt>
      <trkpt lat="43.57166" lon="6.39531">
        <ele>568.8021</ele>
        <time>2013-01-05T13:45:32Z</time>
      </trkpt>
      <trkpt lat="43.57158" lon="6.39536">
        <ele>568.44666</ele>
        <time>2013-01-05T13:45:44Z</time>
      </trkpt>
      <trkpt lat="43.57146" lon="6.3954">
        <ele>567.49774</ele>
        <time>2013-01-05T13:45:59Z</time>
      </trkpt>
      <trkpt lat="43.57136" lon="6.39547">
        <ele>566.84314</ele>
        <time>2013-01-05T13:46:11Z</time>
      </trkpt>
      <trkpt lat="43.57127" lon="6.39553">
        <ele>566.78876</ele>
        <time>2013-01-05T13:46:20Z</time>
      </trkpt>
      <trkpt lat="43.57119" lon="6.39558">
        <ele>566.5022</ele>
        <time>2013-01-05T13:46:29Z</time>
      </trkpt>
      <trkpt lat="43.57108" lon="6.39562">
        <ele>565.6068</ele>
        <time>2013-01-05T13:46:41Z</time>
      </trkpt>
      <trkpt lat="43.571" lon="6.39568">
        <ele>564.7918</ele>
        <time>2013-01-05T13:46:50Z</time>
      </trkpt>
      <trkpt lat="43.57091" lon="6.39575">
        <ele>563.36914</ele>
        <time>2013-01-05T13:47:02Z</time>
      </trkpt>
      <trkpt lat="43.57082" lon="6.3958">
        <ele>562.0452</ele>
        <time>2013-01-05T13:47:14Z</time>
      </trkpt>
      <trkpt lat="43.57073" lon="6.39592">
        <ele>560.82916</ele>
        <time>2013-01-05T13:47:29Z</time>
      </trkpt>
      <trkpt lat="43.57065" lon="6.396">
        <ele>560.1473</ele>
        <time>2013-01-05T13:47:38Z</time>
      </trkpt>
      <trkpt lat="43.57055" lon="6.39606">
        <ele>559.2851</ele>
        <time>2013-01-05T13:47:52Z</time>
      </trkpt>
      <trkpt lat="43.57047" lon="6.39614">
        <ele>558.0142</ele>
        <time>2013-01-05T13:48:04Z</time>
      </trkpt>
      <trkpt lat="43.5705" lon="6.39628">
        <ele>557.3285</ele>
        <time>2013-01-05T13:48:13Z</time>
      </trkpt>
      <trkpt lat="43.57056" lon="6.3964">
        <ele>556.80927</ele>
        <time>2013-01-05T13:48:22Z</time>
      </trkpt>
      <trkpt lat="43.57063" lon="6.39649">
        <ele>555.96387</ele>
        <time>2013-01-05T13:48:34Z</time>
      </trkpt>
      <trkpt lat="43.57072" lon="6.39655">
        <ele>555.66797</ele>
        <time>2013-01-05T13:48:46Z</time>
      </trkpt>
      <trkpt lat="43.57078" lon="6.39667">
        <ele>556.22205</ele>
        <time>2013-01-05T13:48:58Z</time>
      </trkpt>
      <trkpt lat="43.57081" lon="6.3968">
        <ele>557.14404</ele>
        <time>2013-01-05T13:49:16Z</time>
      </trkpt>
      <trkpt lat="43.57078" lon="6.39695">
        <ele>557.3799</ele>
        <time>2013-01-05T13:49:31Z</time>
      </trkpt>
      <trkpt lat="43.57076" lon="6.3971">
        <ele>557.564</ele>
        <time>2013-01-05T13:49:40Z</time>
      </trkpt>
      <trkpt lat="43.57072" lon="6.39722">
        <ele>558.0549</ele>
        <time>2013-01-05T13:49:49Z</time>
      </trkpt>
      <trkpt lat="43.5707" lon="6.39737">
        <ele>559.28143</ele>
        <time>2013-01-05T13:50:01Z</time>
      </trkpt>
      <trkpt lat="43.57066" lon="6.3975">
        <ele>560.2081</ele>
        <time>2013-01-05T13:50:10Z</time>
      </trkpt>
      <trkpt lat="43.57068" lon="6.39763">
        <ele>561.0552</ele>
        <time>2013-01-05T13:50:22Z</time>
      </trkpt>
      <trkpt lat="43.57075" lon="6.39776">
        <ele>561.56445</ele>
        <time>2013-01-05T13:50:34Z</time>
      </trkpt>
      <trkpt lat="43.57078" lon="6.39789">
        <ele>562.03613</ele>
        <time>2013-01-05T13:50:43Z</time>
      </trkpt>
      <trkpt lat="43.57077" lon="6.39803">
        <ele>562.9232</ele>
        <time>2013-01-05T13:50:52Z</time>
      </trkpt>
      <trkpt lat="43.57073" lon="6.39818">
        <ele>564.8164</ele>
        <time>2013-01-05T13:51:04Z</time>
      </trkpt>
      <trkpt lat="43.57067" lon="6.39828">
        <ele>566.1418</ele>
        <time>2013-01-05T13:51:13Z</time>
      </trkpt>
      <trkpt lat="43.57063" lon="6.39839">
        <ele>568.0802</ele>
        <time>2013-01-05T13:51:43Z</time>
      </trkpt>
      <trkpt lat="43.57057" lon="6.39853">
        <ele>568.6259</ele>
        <time>2013-01-05T13:51:52Z</time>
      </trkpt>
      <trkpt lat="43.57053" lon="6.39867">
        <ele>569.12396</ele>
        <time>2013-01-05T13:52:01Z</time>
      </trkpt>
      <trkpt lat="43.57049" lon="6.39881">
        <ele>569.55444</ele>
        <time>2013-01-05T13:52:10Z</time>
      </trkpt>
      <trkpt lat="43.57046" lon="6.39893">
        <ele>569.9058</ele>
        <time>2013-01-05T13:52:19Z</time>
      </trkpt>
      <trkpt lat="43.57042" lon="6.39908">
        <ele>570.1298</ele>
        <time>2013-01-05T13:52:31Z</time>
      </trkpt>
      <trkpt lat="43.57038" lon="6.39922">
        <ele>570.1627</ele>
        <time>2013-01-05T13:52:40Z</time>
      </trkpt>
      <trkpt lat="43.57035" lon="6.39937">
        <ele>570.25854</ele>
        <time>2013-01-05T13:52:49Z</time>
      </trkpt>
      <trkpt lat="43.57034" lon="6.3995">
        <ele>570.07245</ele>
        <time>2013-01-05T13:52:58Z</time>
      </trkpt>
      <trkpt lat="43.57033" lon="6.39966">
        <ele>569.3128</ele>
        <time>2013-01-05T13:53:10Z</time>
      </trkpt>
      <trkpt lat="43.57031" lon="6.3998">
        <ele>568.68085</ele>
        <time>2013-01-05T13:53:19Z</time>
      </trkpt>
      <trkpt lat="43.5703" lon="6.39994">
        <ele>568.042</ele>
        <time>2013-01-05T13:53:28Z</time>
      </trkpt>
      <trkpt lat="43.5703" lon="6.40009">
        <ele>567.2008</ele>
        <time>2013-01-05T13:53:40Z</time>
      </trkpt>
      <trkpt lat="43.57036" lon="6.40019">
        <ele>566.172</ele>
        <time>2013-01-05T13:54:01Z</time>
      </trkpt>
      <trkpt lat="43.57037" lon="6.40034">
        <ele>565.5327</ele>
        <time>2013-01-05T13:54:10Z</time>
      </trkpt>
      <trkpt lat="43.57037" lon="6.40048">
        <ele>564.99506</ele>
        <time>2013-01-05T13:54:22Z</time>
      </trkpt>
      <trkpt lat="43.5704" lon="6.40061">
        <ele>564.51245</ele>
        <time>2013-01-05T13:54:31Z</time>
      </trkpt>
      <trkpt lat="43.57042" lon="6.40076">
        <ele>564.0163</ele>
        <time>2013-01-05T13:54:40Z</time>
      </trkpt>
      <trkpt lat="43.57047" lon="6.40086">
        <ele>563.54944</ele>
        <time>2013-01-05T13:54:55Z</time>
      </trkpt>
      <trkpt lat="43.57039" lon="6.40095">
        <ele>563.2162</ele>
        <time>2013-01-05T13:55:10Z</time>
      </trkpt>
      <trkpt lat="43.57032" lon="6.40103">
        <ele>562.2903</ele>
        <time>2013-01-05T13:55:40Z</time>
      </trkpt>
      <trkpt lat="43.57028" lon="6.40117">
        <ele>561.6365</ele>
        <time>2013-01-05T13:56:01Z</time>
      </trkpt>
      <trkpt lat="43.57022" lon="6.40129">
        <ele>560.88385</ele>
        <time>2013-01-05T13:56:13Z</time>
      </trkpt>
      <trkpt lat="43.57016" lon="6.40139">
        <ele>559.99255</ele>
        <time>2013-01-05T13:56:25Z</time>
      </trkpt>
      <trkpt lat="43.57011" lon="6.40151">
        <ele>558.90784</ele>
        <time>2013-01-05T13:56:37Z</time>
      </trkpt>
      <trkpt lat="43.57003" lon="6.4016">
        <ele>557.694</ele>
        <time>2013-01-05T13:56:49Z</time>
      </trkpt>
      <trkpt lat="43.57002" lon="6.40174">
        <ele>555.92487</ele>
        <time>2013-01-05T13:57:04Z</time>
      </trkpt>
      <trkpt lat="43.56998" lon="6.40187">
        <ele>554.5374</ele>
        <time>2013-01-05T13:57:19Z</time>
      </trkpt>
      <trkpt lat="43.56991" lon="6.40201">
        <ele>553.42633</ele>
        <time>2013-01-05T13:57:31Z</time>
      </trkpt>
      <trkpt lat="43.56988" lon="6.40214">
        <ele>552.2208</ele>
        <time>2013-01-05T13:57:40Z</time>
      </trkpt>
      <trkpt lat="43.56981" lon="6.40223">
        <ele>550.8608</ele>
        <time>2013-01-05T13:57:49Z</time>
      </trkpt>
      <trkpt lat="43.56974" lon="6.40232">
        <ele>548.68787</ele>
        <time>2013-01-05T13:58:04Z</time>
      </trkpt>
      <trkpt lat="43.56971" lon="6.40246">
        <ele>546.79004</ele>
        <time>2013-01-05T13:58:16Z</time>
      </trkpt>
      <trkpt lat="43.56966" lon="6.40259">
        <ele>545.9294</ele>
        <time>2013-01-05T13:58:22Z</time>
      </trkpt>
      <trkpt lat="43.56963" lon="6.40274">
        <ele>544.72906</ele>
        <time>2013-01-05T13:58:34Z</time>
      </trkpt>
      <trkpt lat="43.56964" lon="6.40287">
        <ele>543.2632</ele>
        <time>2013-01-05T13:58:49Z</time>
      </trkpt>
      <trkpt lat="43.56961" lon="6.403">
        <ele>541.923</ele>
        <time>2013-01-05T13:58:58Z</time>
      </trkpt>
      <trkpt lat="43.56959" lon="6.40313">
        <ele>540.50507</ele>
        <time>2013-01-05T13:59:07Z</time>
      </trkpt>
      <trkpt lat="43.56956" lon="6.40329">
        <ele>539.63074</ele>
        <time>2013-01-05T13:59:16Z</time>
      </trkpt>
      <trkpt lat="43.56954" lon="6.40345">
        <ele>539.14575</ele>
        <time>2013-01-05T13:59:28Z</time>
      </trkpt>
      <trkpt lat="43.56951" lon="6.40358">
        <ele>538.462</ele>
        <time>2013-01-05T13:59:40Z</time>
      </trkpt>
      <trkpt lat="43.56951" lon="6.40372">
        <ele>537.5401</ele>
        <time>2013-01-05T13:59:52Z</time>
      </trkpt>
      <trkpt lat="43.56954" lon="6.40386">
        <ele>535.5006</ele>
        <time>2013-01-05T14:00:22Z</time>
      </trkpt>
      <trkpt lat="43.56955" lon="6.40401">
        <ele>534.9612</ele>
        <time>2013-01-05T14:00:34Z</time>
      </trkpt>
      <trkpt lat="43.56955" lon="6.40416">
        <ele>534.5488</ele>
        <time>2013-01-05T14:00:46Z</time>
      </trkpt>
      <trkpt lat="43.56963" lon="6.40425">
        <ele>534.41125</ele>
        <time>2013-01-05T14:01:01Z</time>
      </trkpt>
      <trkpt lat="43.56964" lon="6.40438">
        <ele>533.9601</ele>
        <time>2013-01-05T14:01:16Z</time>
      </trkpt>
      <trkpt lat="43.5696" lon="6.40451">
        <ele>533.9245</ele>
        <time>2013-01-05T14:01:25Z</time>
      </trkpt>
      <trkpt lat="43.56957" lon="6.40464">
        <ele>534.0762</ele>
        <time>2013-01-05T14:01:34Z</time>
      </trkpt>
      <trkpt lat="43.56952" lon="6.40475">
        <ele>534.57477</ele>
        <time>2013-01-05T14:01:43Z</time>
      </trkpt>
      <trkpt lat="43.56949" lon="6.40488">
        <ele>534.87714</ele>
        <time>2013-01-05T14:01:52Z</time>
      </trkpt>
      <trkpt lat="43.56949" lon="6.40501">
        <ele>534.71136</ele>
        <time>2013-01-05T14:02:19Z</time>
      </trkpt>
      <trkpt lat="43.56947" lon="6.40513">
        <ele>534.3671</ele>
        <time>2013-01-05T14:02:28Z</time>
      </trkpt>
      <trkpt lat="43.56945" lon="6.40525">
        <ele>534.28625</ele>
        <time>2013-01-05T14:02:31Z</time>
      </trkpt>
      <trkpt lat="43.56941" lon="6.40538">
        <ele>534.03815</ele>
        <time>2013-01-05T14:02:40Z</time>
      </trkpt>
      <trkpt lat="43.56934" lon="6.40549">
        <ele>534.16</ele>
        <time>2013-01-05T14:02:49Z</time>
      </trkpt>
      <trkpt lat="43.56925" lon="6.40556">
        <ele>534.39606</ele>
        <time>2013-01-05T14:02:58Z</time>
      </trkpt>
      <trkpt lat="43.56915" lon="6.40562">
        <ele>534.73035</ele>
        <time>2013-01-05T14:03:10Z</time>
      </trkpt>
      <trkpt lat="43.56905" lon="6.40568">
        <ele>535.2963</ele>
        <time>2013-01-05T14:03:37Z</time>
      </trkpt>
      <trkpt lat="43.56895" lon="6.40573">
        <ele>536.2949</ele>
        <time>2013-01-05T14:04:04Z</time>
      </trkpt>
      <trkpt lat="43.569" lon="6.40584">
        <ele>537.03033</ele>
        <time>2013-01-05T14:05:55Z</time>
      </trkpt>
      <trkpt lat="43.56903" lon="6.40598">
        <ele>536.58954</ele>
        <time>2013-01-05T14:06:04Z</time>
      </trkpt>
      <trkpt lat="43.56907" lon="6.40613">
        <ele>535.691</ele>
        <time>2013-01-05T14:06:16Z</time>
      </trkpt>
      <trkpt lat="43.56913" lon="6.40625">
        <ele>533.82605</ele>
        <time>2013-01-05T14:06:28Z</time>
      </trkpt>
      <trkpt lat="43.56915" lon="6.4064">
        <ele>532.4438</ele>
        <time>2013-01-05T14:06:37Z</time>
      </trkpt>
      <trkpt lat="43.56915" lon="6.40652">
        <ele>531.4671</ele>
        <time>2013-01-05T14:06:46Z</time>
      </trkpt>
      <trkpt lat="43.56913" lon="6.40666">
        <ele>530.91125</ele>
        <time>2013-01-05T14:06:58Z</time>
      </trkpt>
      <trkpt lat="43.56907" lon="6.40678">
        <ele>530.4525</ele>
        <time>2013-01-05T14:07:10Z</time>
      </trkpt>
      <trkpt lat="43.56896" lon="6.4068">
        <ele>529.7533</ele>
        <time>2013-01-05T14:07:25Z</time>
      </trkpt>
      <trkpt lat="43.56886" lon="6.40683">
        <ele>528.5408</ele>
        <time>2013-01-05T14:07:34Z</time>
      </trkpt>
      <trkpt lat="43.56878" lon="6.40691">
        <ele>525.84906</ele>
        <time>2013-01-05T14:07:49Z</time>
      </trkpt>
      <trkpt lat="43.56871" lon="6.40701">
        <ele>524.58887</ele>
        <time>2013-01-05T14:07:55Z</time>
      </trkpt>
      <trkpt lat="43.56868" lon="6.40714">
        <ele>522.04706</ele>
        <time>2013-01-05T14:08:07Z</time>
      </trkpt>
      <trkpt lat="43.56865" lon="6.40726">
        <ele>519.83405</ele>
        <time>2013-01-05T14:08:16Z</time>
      </trkpt>
      <trkpt lat="43.56862" lon="6.40739">
        <ele>516.7226</ele>
        <time>2013-01-05T14:08:28Z</time>
      </trkpt>
      <trkpt lat="43.56853" lon="6.40751">
        <ele>514.3452</ele>
        <time>2013-01-05T14:08:37Z</time>
      </trkpt>
      <trkpt lat="43.56846" lon="6.40766">
        <ele>511.86325</ele>
        <time>2013-01-05T14:08:46Z</time>
      </trkpt>
      <trkpt lat="43.56842" lon="6.40785">
        <ele>509.86954</ele>
        <time>2013-01-05T14:08:55Z</time>
      </trkpt>
      <trkpt lat="43.56842" lon="6.40799">
        <ele>509.32953</ele>
        <time>2013-01-05T14:09:01Z</time>
      </trkpt>
      <trkpt lat="43.56836" lon="6.40811">
        <ele>509.40854</ele>
        <time>2013-01-05T14:09:10Z</time>
      </trkpt>
      <trkpt lat="43.56828" lon="6.40818">
        <ele>509.6912</ele>
        <time>2013-01-05T14:09:19Z</time>
      </trkpt>
      <trkpt lat="43.5682" lon="6.40824">
        <ele>509.84747</ele>
        <time>2013-01-05T14:09:28Z</time>
      </trkpt>
      <trkpt lat="43.56812" lon="6.40831">
        <ele>509.66248</ele>
        <time>2013-01-05T14:09:40Z</time>
      </trkpt>
      <trkpt lat="43.56807" lon="6.40841">
        <ele>509.4401</ele>
        <time>2013-01-05T14:09:58Z</time>
      </trkpt>
      <trkpt lat="43.56809" lon="6.40855">
        <ele>509.1464</ele>
        <time>2013-01-05T14:10:16Z</time>
      </trkpt>
      <trkpt lat="43.56817" lon="6.40864">
        <ele>508.80298</ele>
        <time>2013-01-05T14:10:34Z</time>
      </trkpt>
      <trkpt lat="43.56827" lon="6.40869">
        <ele>507.86777</ele>
        <time>2013-01-05T14:10:49Z</time>
      </trkpt>
      <trkpt lat="43.56835" lon="6.40882">
        <ele>506.8502</ele>
        <time>2013-01-05T14:11:01Z</time>
      </trkpt>
      <trkpt lat="43.5684" lon="6.40892">
        <ele>506.31995</ele>
        <time>2013-01-05T14:11:10Z</time>
      </trkpt>
      <trkpt lat="43.56838" lon="6.40905">
        <ele>505.54605</ele>
        <time>2013-01-05T14:11:25Z</time>
      </trkpt>
      <trkpt lat="43.56831" lon="6.40912">
        <ele>504.70828</ele>
        <time>2013-01-05T14:11:37Z</time>
      </trkpt>
      <trkpt lat="43.56821" lon="6.40918">
        <ele>503.6027</ele>
        <time>2013-01-05T14:11:49Z</time>
      </trkpt>
      <trkpt lat="43.56812" lon="6.40923">
        <ele>502.58496</ele>
        <time>2013-01-05T14:12:01Z</time>
      </trkpt>
      <trkpt lat="43.56803" lon="6.40928">
        <ele>501.24112</ele>
        <time>2013-01-05T14:12:13Z</time>
      </trkpt>
      <trkpt lat="43.56795" lon="6.40935">
        <ele>499.66708</ele>
        <time>2013-01-05T14:12:28Z</time>
      </trkpt>
      <trkpt lat="43.56784" lon="6.40939">
        <ele>498.84177</ele>
        <time>2013-01-05T14:12:43Z</time>
      </trkpt>
      <trkpt lat="43.56775" lon="6.40944">
        <ele>497.99652</ele>
        <time>2013-01-05T14:12:55Z</time>
      </trkpt>
      <trkpt lat="43.56765" lon="6.40941">
        <ele>496.96832</ele>
        <time>2013-01-05T14:13:07Z</time>
      </trkpt>
      <trkpt lat="43.56757" lon="6.40935">
        <ele>495.75513</ele>
        <time>2013-01-05T14:13:19Z</time>
      </trkpt>
      <trkpt lat="43.56747" lon="6.40933">
        <ele>493.68256</ele>
        <time>2013-01-05T14:13:37Z</time>
      </trkpt>
      <trkpt lat="43.5674" lon="6.40927">
        <ele>491.52368</ele>
        <time>2013-01-05T14:14:07Z</time>
      </trkpt>
      <trkpt lat="43.5673" lon="6.4092">
        <ele>490.26306</ele>
        <time>2013-01-05T14:14:22Z</time>
      </trkpt>
      <trkpt lat="43.56719" lon="6.40913">
        <ele>489.5443</ele>
        <time>2013-01-05T14:14:37Z</time>
      </trkpt>
      <trkpt lat="43.56713" lon="6.40904">
        <ele>488.10837</ele>
        <time>2013-01-05T14:14:49Z</time>
      </trkpt>
      <trkpt lat="43.56704" lon="6.409">
        <ele>486.87573</ele>
        <time>2013-01-05T14:14:58Z</time>
      </trkpt>
      <trkpt lat="43.56695" lon="6.40895">
        <ele>485.05942</ele>
        <time>2013-01-05T14:15:10Z</time>
      </trkpt>
      <trkpt lat="43.56696" lon="6.40909">
        <ele>481.93756</ele>
        <time>2013-01-05T14:15:31Z</time>
      </trkpt>
      <trkpt lat="43.56698" lon="6.40923">
        <ele>480.27786</ele>
        <time>2013-01-05T14:15:43Z</time>
      </trkpt>
      <trkpt lat="43.56702" lon="6.40934">
        <ele>478.80258</ele>
        <time>2013-01-05T14:15:58Z</time>
      </trkpt>
      <trkpt lat="43.56705" lon="6.40947">
        <ele>478.69174</ele>
        <time>2013-01-05T14:17:42Z</time>
      </trkpt>
      <trkpt lat="43.56712" lon="6.40958">
        <ele>478.2469</ele>
        <time>2013-01-05T14:17:51Z</time>
      </trkpt>
      <trkpt lat="43.56717" lon="6.40969">
        <ele>477.62433</ele>
        <time>2013-01-05T14:18:00Z</time>
      </trkpt>
      <trkpt lat="43.56721" lon="6.40981">
        <ele>476.966</ele>
        <time>2013-01-05T14:18:09Z</time>
      </trkpt>
      <trkpt lat="43.56728" lon="6.40992">
        <ele>476.20352</ele>
        <time>2013-01-05T14:18:21Z</time>
      </trkpt>
      <trkpt lat="43.56734" lon="6.41001">
        <ele>475.6093</ele>
        <time>2013-01-05T14:18:33Z</time>
      </trkpt>
      <trkpt lat="43.56741" lon="6.41009">
        <ele>474.9638</ele>
        <time>2013-01-05T14:18:42Z</time>
      </trkpt>
      <trkpt lat="43.56748" lon="6.41018">
        <ele>473.9851</ele>
        <time>2013-01-05T14:18:54Z</time>
      </trkpt>
      <trkpt lat="43.56759" lon="6.41024">
        <ele>473.0187</ele>
        <time>2013-01-05T14:19:03Z</time>
      </trkpt>
      <trkpt lat="43.56767" lon="6.41031">
        <ele>471.96362</ele>
        <time>2013-01-05T14:19:15Z</time>
      </trkpt>
      <trkpt lat="43.56778" lon="6.41039">
        <ele>470.96155</ele>
        <time>2013-01-05T14:19:30Z</time>
      </trkpt>
      <trkpt lat="43.56787" lon="6.41042">
        <ele>470.02612</ele>
        <time>2013-01-05T14:19:39Z</time>
      </trkpt>
      <trkpt lat="43.56796" lon="6.41044">
        <ele>468.20334</ele>
        <time>2013-01-05T14:19:51Z</time>
      </trkpt>
      <trkpt lat="43.56805" lon="6.41051">
        <ele>466.1546</ele>
        <time>2013-01-05T14:20:03Z</time>
      </trkpt>
      <trkpt lat="43.56816" lon="6.41056">
        <ele>463.91858</ele>
        <time>2013-01-05T14:20:18Z</time>
      </trkpt>
      <trkpt lat="43.5683" lon="6.41053">
        <ele>462.63278</ele>
        <time>2013-01-05T14:20:27Z</time>
      </trkpt>
      <trkpt lat="43.56838" lon="6.41059">
        <ele>461.21756</ele>
        <time>2013-01-05T14:20:36Z</time>
      </trkpt>
      <trkpt lat="43.56848" lon="6.41063">
        <ele>459.24194</ele>
        <time>2013-01-05T14:20:48Z</time>
      </trkpt>
      <trkpt lat="43.5686" lon="6.41065">
        <ele>457.24036</ele>
        <time>2013-01-05T14:21:00Z</time>
      </trkpt>
      <trkpt lat="43.56869" lon="6.41059">
        <ele>454.85605</ele>
        <time>2013-01-05T14:21:15Z</time>
      </trkpt>
      <trkpt lat="43.5688" lon="6.41057">
        <ele>452.50378</ele>
        <time>2013-01-05T14:21:27Z</time>
      </trkpt>
      <trkpt lat="43.56891" lon="6.41053">
        <ele>451.09616</ele>
        <time>2013-01-05T14:21:33Z</time>
      </trkpt>
      <trkpt lat="43.56901" lon="6.41047">
        <ele>448.8939</ele>
        <time>2013-01-05T14:21:45Z</time>
      </trkpt>
      <trkpt lat="43.5691" lon="6.41044">
        <ele>447.3846</ele>
        <time>2013-01-05T14:21:57Z</time>
      </trkpt>
      <trkpt lat="43.5692" lon="6.41042">
        <ele>445.93063</ele>
        <time>2013-01-05T14:22:12Z</time>
      </trkpt>
      <trkpt lat="43.5693" lon="6.41041">
        <ele>444.5186</ele>
        <time>2013-01-05T14:22:24Z</time>
      </trkpt>
      <trkpt lat="43.56938" lon="6.41035">
        <ele>442.34836</ele>
        <time>2013-01-05T14:22:51Z</time>
      </trkpt>
      <trkpt lat="43.56948" lon="6.41032">
        <ele>439.9735</ele>
        <time>2013-01-05T14:23:27Z</time>
      </trkpt>
      <trkpt lat="43.56952" lon="6.41043">
        <ele>438.31235</ele>
        <time>2013-01-05T14:25:49Z</time>
      </trkpt>
      <trkpt lat="43.56961" lon="6.41046">
        <ele>439.24847</ele>
        <time>2013-01-05T14:26:07Z</time>
      </trkpt>
      <trkpt lat="43.56971" lon="6.41049">
        <ele>439.2799</ele>
        <time>2013-01-05T14:26:19Z</time>
      </trkpt>
      <trkpt lat="43.56981" lon="6.41051">
        <ele>438.7496</ele>
        <time>2013-01-05T14:26:34Z</time>
      </trkpt>
      <trkpt lat="43.56993" lon="6.41054">
        <ele>438.53854</ele>
        <time>2013-01-05T14:26:43Z</time>
      </trkpt>
      <trkpt lat="43.57005" lon="6.41055">
        <ele>437.29886</ele>
        <time>2013-01-05T14:26:55Z</time>
      </trkpt>
      <trkpt lat="43.57016" lon="6.41056">
        <ele>436.0071</ele>
        <time>2013-01-05T14:27:04Z</time>
      </trkpt>
      <trkpt lat="43.57025" lon="6.41056">
        <ele>435.2136</ele>
        <time>2013-01-05T14:27:10Z</time>
      </trkpt>
      <trkpt lat="43.57035" lon="6.41051">
        <ele>433.56064</ele>
        <time>2013-01-05T14:27:22Z</time>
      </trkpt>
      <trkpt lat="43.57044" lon="6.41045">
        <ele>432.1968</ele>
        <time>2013-01-05T14:27:34Z</time>
      </trkpt>
      <trkpt lat="43.57054" lon="6.4104">
        <ele>431.69254</ele>
        <time>2013-01-05T14:27:43Z</time>
      </trkpt>
      <trkpt lat="43.57062" lon="6.41051">
        <ele>431.72083</ele>
        <time>2013-01-05T14:27:55Z</time>
      </trkpt>
      <trkpt lat="43.57055" lon="6.41058">
        <ele>431.52417</ele>
        <time>2013-01-05T14:28:04Z</time>
      </trkpt>
      <trkpt lat="43.57047" lon="6.41065">
        <ele>431.09595</ele>
        <time>2013-01-05T14:28:13Z</time>
      </trkpt>
      <trkpt lat="43.57036" lon="6.41073">
        <ele>430.49637</ele>
        <time>2013-01-05T14:28:22Z</time>
      </trkpt>
      <trkpt lat="43.57027" lon="6.41079">
        <ele>429.9576</ele>
        <time>2013-01-05T14:28:28Z</time>
      </trkpt>
      <trkpt lat="43.57017" lon="6.41086">
        <ele>429.34555</ele>
        <time>2013-01-05T14:28:37Z</time>
      </trkpt>
      <trkpt lat="43.57005" lon="6.41089">
        <ele>428.65878</ele>
        <time>2013-01-05T14:28:46Z</time>
      </trkpt>
      <trkpt lat="43.56994" lon="6.41091">
        <ele>428.06918</ele>
        <time>2013-01-05T14:28:55Z</time>
      </trkpt>
      <trkpt lat="43.56982" lon="6.41095">
        <ele>427.66714</ele>
        <time>2013-01-05T14:29:04Z</time>
      </trkpt>
      <trkpt lat="43.56972" lon="6.41099">
        <ele>427.42438</ele>
        <time>2013-01-05T14:29:13Z</time>
      </trkpt>
      <trkpt lat="43.56963" lon="6.41102">
        <ele>427.0695</ele>
        <time>2013-01-05T14:29:22Z</time>
      </trkpt>
      <trkpt lat="43.56953" lon="6.41105">
        <ele>426.363</ele>
        <time>2013-01-05T14:29:31Z</time>
      </trkpt>
      <trkpt lat="43.56943" lon="6.41111">
        <ele>425.45453</ele>
        <time>2013-01-05T14:29:40Z</time>
      </trkpt>
      <trkpt lat="43.56933" lon="6.41115">
        <ele>424.4982</ele>
        <time>2013-01-05T14:29:49Z</time>
      </trkpt>
      <trkpt lat="43.56926" lon="6.41122">
        <ele>424.00464</ele>
        <time>2013-01-05T14:29:58Z</time>
      </trkpt>
      <trkpt lat="43.56918" lon="6.41133">
        <ele>423.56647</ele>
        <time>2013-01-05T14:30:13Z</time>
      </trkpt>
      <trkpt lat="43.56906" lon="6.41139">
        <ele>423.48416</ele>
        <time>2013-01-05T14:30:25Z</time>
      </trkpt>
      <trkpt lat="43.56895" lon="6.41146">
        <ele>423.0183</ele>
        <time>2013-01-05T14:30:34Z</time>
      </trkpt>
      <trkpt lat="43.56885" lon="6.41149">
        <ele>421.9456</ele>
        <time>2013-01-05T14:30:46Z</time>
      </trkpt>
      <trkpt lat="43.56874" lon="6.41151">
        <ele>421.19873</ele>
        <time>2013-01-05T14:30:55Z</time>
      </trkpt>
      <trkpt lat="43.56864" lon="6.41151">
        <ele>420.6775</ele>
        <time>2013-01-05T14:31:01Z</time>
      </trkpt>
      <trkpt lat="43.56852" lon="6.41153">
        <ele>419.57758</ele>
        <time>2013-01-05T14:31:10Z</time>
      </trkpt>
      <trkpt lat="43.56841" lon="6.41158">
        <ele>419.16595</ele>
        <time>2013-01-05T14:31:22Z</time>
      </trkpt>
      <trkpt lat="43.56826" lon="6.4116">
        <ele>419.1645</ele>
        <time>2013-01-05T14:31:31Z</time>
      </trkpt>
      <trkpt lat="43.56815" lon="6.41166">
        <ele>419.1199</ele>
        <time>2013-01-05T14:31:40Z</time>
      </trkpt>
      <trkpt lat="43.56805" lon="6.41169">
        <ele>419.26846</ele>
        <time>2013-01-05T14:31:49Z</time>
      </trkpt>
      <trkpt lat="43.56795" lon="6.41169">
        <ele>419.23895</ele>
        <time>2013-01-05T14:32:01Z</time>
      </trkpt>
      <trkpt lat="43.56785" lon="6.41164">
        <ele>418.85117</ele>
        <time>2013-01-05T14:32:13Z</time>
      </trkpt>
      <trkpt lat="43.56776" lon="6.41162">
        <ele>418.51135</ele>
        <time>2013-01-05T14:32:16Z</time>
      </trkpt>
      <trkpt lat="43.56766" lon="6.41163">
        <ele>417.27197</ele>
        <time>2013-01-05T14:32:25Z</time>
      </trkpt>
      <trkpt lat="43.56752" lon="6.41168">
        <ele>416.88913</ele>
        <time>2013-01-05T14:32:37Z</time>
      </trkpt>
      <trkpt lat="43.56739" lon="6.41171">
        <ele>416.85687</ele>
        <time>2013-01-05T14:32:43Z</time>
      </trkpt>
      <trkpt lat="43.5673" lon="6.41169">
        <ele>416.54764</ele>
        <time>2013-01-05T14:32:52Z</time>
      </trkpt>
      <trkpt lat="43.56719" lon="6.41169">
        <ele>416.10965</ele>
        <time>2013-01-05T14:33:01Z</time>
      </trkpt>
      <trkpt lat="43.56707" lon="6.41168">
        <ele>415.52768</ele>
        <time>2013-01-05T14:33:10Z</time>
      </trkpt>
      <trkpt lat="43.56696" lon="6.41165">
        <ele>414.84906</ele>
        <time>2013-01-05T14:33:22Z</time>
      </trkpt>
      <trkpt lat="43.56683" lon="6.41157">
        <ele>414.14542</ele>
        <time>2013-01-05T14:33:31Z</time>
      </trkpt>
      <trkpt lat="43.56675" lon="6.4115">
        <ele>413.31705</ele>
        <time>2013-01-05T14:33:37Z</time>
      </trkpt>
      <trkpt lat="43.56665" lon="6.41146">
        <ele>412.49985</ele>
        <time>2013-01-05T14:33:43Z</time>
      </trkpt>
      <trkpt lat="43.56654" lon="6.41139">
        <ele>411.41058</ele>
        <time>2013-01-05T14:33:55Z</time>
      </trkpt>
      <trkpt lat="43.56641" lon="6.41132">
        <ele>410.29822</ele>
        <time>2013-01-05T14:34:07Z</time>
      </trkpt>
      <trkpt lat="43.5663" lon="6.41132">
        <ele>409.06418</ele>
        <time>2013-01-05T14:34:16Z</time>
      </trkpt>
      <trkpt lat="43.56619" lon="6.41134">
        <ele>408.06506</ele>
        <time>2013-01-05T14:34:28Z</time>
      </trkpt>
      <trkpt lat="43.5661" lon="6.41135">
        <ele>407.17685</ele>
        <time>2013-01-05T14:34:37Z</time>
      </trkpt>
      <trkpt lat="43.56597" lon="6.41133">
        <ele>405.64633</ele>
        <time>2013-01-05T14:34:49Z</time>
      </trkpt>
      <trkpt lat="43.56587" lon="6.41126">
        <ele>403.7229</ele>
        <time>2013-01-05T14:34:58Z</time>
      </trkpt>
      <trkpt lat="43.56579" lon="6.41114">
        <ele>402.44937</ele>
        <time>2013-01-05T14:35:58Z</time>
      </trkpt>
      <trkpt lat="43.5657" lon="6.41112">
        <ele>402.1284</ele>
        <time>2013-01-05T14:36:07Z</time>
      </trkpt>
      <trkpt lat="43.56559" lon="6.41111">
        <ele>402.03934</ele>
        <time>2013-01-05T14:36:16Z</time>
      </trkpt>
      <trkpt lat="43.56548" lon="6.41106">
        <ele>401.95215</ele>
        <time>2013-01-05T14:36:25Z</time>
      </trkpt>
      <trkpt lat="43.56539" lon="6.41105">
        <ele>401.54614</ele>
        <time>2013-01-05T14:36:34Z</time>
      </trkpt>
      <trkpt lat="43.56528" lon="6.41105">
        <ele>400.9677</ele>
        <time>2013-01-05T14:36:43Z</time>
      </trkpt>
      <trkpt lat="43.56518" lon="6.41104">
        <ele>400.4381</ele>
        <time>2013-01-05T14:36:52Z</time>
      </trkpt>
      <trkpt lat="43.56508" lon="6.41103">
        <ele>399.6276</ele>
        <time>2013-01-05T14:37:01Z</time>
      </trkpt>
      <trkpt lat="43.56498" lon="6.41098">
        <ele>398.7465</ele>
        <time>2013-01-05T14:37:07Z</time>
      </trkpt>
      <trkpt lat="43.56487" lon="6.41089">
        <ele>396.15186</ele>
        <time>2013-01-05T14:37:19Z</time>
      </trkpt>
      <trkpt lat="43.56474" lon="6.41083">
        <ele>393.92795</ele>
        <time>2013-01-05T14:37:28Z</time>
      </trkpt>
      <trkpt lat="43.56465" lon="6.4107">
        <ele>392.32755</ele>
        <time>2013-01-05T14:37:37Z</time>
      </trkpt>
      <trkpt lat="43.56456" lon="6.41058">
        <ele>391.75424</ele>
        <time>2013-01-05T14:37:46Z</time>
      </trkpt>
      <trkpt lat="43.56449" lon="6.41045">
        <ele>391.22195</ele>
        <time>2013-01-05T14:37:55Z</time>
      </trkpt>
      <trkpt lat="43.56441" lon="6.41035">
        <ele>390.93573</ele>
        <time>2013-01-05T14:38:04Z</time>
      </trkpt>
      <trkpt lat="43.56431" lon="6.41024">
        <ele>390.47968</ele>
        <time>2013-01-05T14:38:16Z</time>
      </trkpt>
      <trkpt lat="43.56422" lon="6.41015">
        <ele>390.32944</ele>
        <time>2013-01-05T14:38:25Z</time>
      </trkpt>
      <trkpt lat="43.56412" lon="6.41006">
        <ele>390.01724</ele>
        <time>2013-01-05T14:38:34Z</time>
      </trkpt>
      <trkpt lat="43.56402" lon="6.41003">
        <ele>388.7586</ele>
        <time>2013-01-05T14:38:46Z</time>
      </trkpt>
      <trkpt lat="43.56392" lon="6.41007">
        <ele>387.67938</ele>
        <time>2013-01-05T14:38:55Z</time>
      </trkpt>
      <trkpt lat="43.56381" lon="6.41009">
        <ele>388.19794</ele>
        <time>2013-01-05T14:39:49Z</time>
      </trkpt>
      <trkpt lat="43.5637" lon="6.41009">
        <ele>388.08994</ele>
        <time>2013-01-05T14:40:01Z</time>
      </trkpt>
      <trkpt lat="43.56359" lon="6.41003">
        <ele>386.85397</ele>
        <time>2013-01-05T14:40:10Z</time>
      </trkpt>
      <trkpt lat="43.56352" lon="6.40995">
        <ele>385.91766</ele>
        <time>2013-01-05T14:40:16Z</time>
      </trkpt>
      <trkpt lat="43.56345" lon="6.40985">
        <ele>384.7995</ele>
        <time>2013-01-05T14:40:22Z</time>
      </trkpt>
      <trkpt lat="43.56336" lon="6.40978">
        <ele>383.81183</ele>
        <time>2013-01-05T14:40:28Z</time>
      </trkpt>
      <trkpt lat="43.56324" lon="6.40972">
        <ele>383.2693</ele>
        <time>2013-01-05T14:40:34Z</time>
      </trkpt>
      <trkpt lat="43.56315" lon="6.40968">
        <ele>383.2822</ele>
        <time>2013-01-05T14:40:40Z</time>
      </trkpt>
      <trkpt lat="43.56304" lon="6.40961">
        <ele>383.48785</ele>
        <time>2013-01-05T14:40:49Z</time>
      </trkpt>
      <trkpt lat="43.56291" lon="6.40956">
        <ele>383.40256</ele>
        <time>2013-01-05T14:40:58Z</time>
      </trkpt>
      <trkpt lat="43.56281" lon="6.40952">
        <ele>382.84885</ele>
        <time>2013-01-05T14:41:07Z</time>
      </trkpt>
      <trkpt lat="43.56271" lon="6.40948">
        <ele>382.32443</ele>
        <time>2013-01-05T14:41:16Z</time>
      </trkpt>
      <trkpt lat="43.56261" lon="6.40942">
        <ele>381.56552</ele>
        <time>2013-01-05T14:41:25Z</time>
      </trkpt>
      <trkpt lat="43.56251" lon="6.40931">
        <ele>380.6355</ele>
        <time>2013-01-05T14:41:34Z</time>
      </trkpt>
      <trkpt lat="43.56242" lon="6.40923">
        <ele>379.89868</ele>
        <time>2013-01-05T14:41:43Z</time>
      </trkpt>
      <trkpt lat="43.56234" lon="6.40911">
        <ele>379.03806</ele>
        <time>2013-01-05T14:41:52Z</time>
      </trkpt>
      <trkpt lat="43.56226" lon="6.40901">
        <ele>377.6909</ele>
        <time>2013-01-05T14:42:01Z</time>
      </trkpt>
      <trkpt lat="43.56219" lon="6.40888">
        <ele>376.49707</ele>
        <time>2013-01-05T14:42:10Z</time>
      </trkpt>
      <trkpt lat="43.56217" lon="6.40873">
        <ele>375.59293</ele>
        <time>2013-01-05T14:42:19Z</time>
      </trkpt>
      <trkpt lat="43.56212" lon="6.40861">
        <ele>374.06702</ele>
        <time>2013-01-05T14:42:31Z</time>
      </trkpt>
      <trkpt lat="43.56211" lon="6.40848">
        <ele>372.63373</ele>
        <time>2013-01-05T14:42:46Z</time>
      </trkpt>
      <trkpt lat="43.56218" lon="6.40839">
        <ele>372.64578</ele>
        <time>2013-01-05T14:42:58Z</time>
      </trkpt>
      <trkpt lat="43.56223" lon="6.40829">
        <ele>373.27313</ele>
        <time>2013-01-05T14:43:07Z</time>
      </trkpt>
      <trkpt lat="43.56231" lon="6.40819">
        <ele>374.11658</ele>
        <time>2013-01-05T14:43:19Z</time>
      </trkpt>
      <trkpt lat="43.56237" lon="6.40809">
        <ele>374.34152</ele>
        <time>2013-01-05T14:43:28Z</time>
      </trkpt>
      <trkpt lat="43.56246" lon="6.40795">
        <ele>374.3141</ele>
        <time>2013-01-05T14:43:37Z</time>
      </trkpt>
      <trkpt lat="43.56252" lon="6.4078">
        <ele>372.9648</ele>
        <time>2013-01-05T14:43:46Z</time>
      </trkpt>
      <trkpt lat="43.56255" lon="6.40766">
        <ele>371.14697</ele>
        <time>2013-01-05T14:43:58Z</time>
      </trkpt>
      <trkpt lat="43.5625" lon="6.4075">
        <ele>370.19257</ele>
        <time>2013-01-05T14:44:07Z</time>
      </trkpt>
      <trkpt lat="43.56248" lon="6.40738">
        <ele>370.03043</ele>
        <time>2013-01-05T14:44:13Z</time>
      </trkpt>
      <trkpt lat="43.56245" lon="6.40723">
        <ele>369.97534</ele>
        <time>2013-01-05T14:44:22Z</time>
      </trkpt>
      <trkpt lat="43.56242" lon="6.40708">
        <ele>369.7387</ele>
        <time>2013-01-05T14:44:31Z</time>
      </trkpt>
      <trkpt lat="43.56237" lon="6.40696">
        <ele>369.3607</ele>
        <time>2013-01-05T14:44:46Z</time>
      </trkpt>
      <trkpt lat="43.56233" lon="6.40684">
        <ele>368.74893</ele>
        <time>2013-01-05T14:44:55Z</time>
      </trkpt>
      <trkpt lat="43.56229" lon="6.4067">
        <ele>367.93228</ele>
        <time>2013-01-05T14:45:04Z</time>
      </trkpt>
      <trkpt lat="43.56227" lon="6.40658">
        <ele>367.34018</ele>
        <time>2013-01-05T14:45:13Z</time>
      </trkpt>
      <trkpt lat="43.56223" lon="6.40644">
        <ele>367.2169</ele>
        <time>2013-01-05T14:45:22Z</time>
      </trkpt>
      <trkpt lat="43.56218" lon="6.40626">
        <ele>367.35825</ele>
        <time>2013-01-05T14:45:31Z</time>
      </trkpt>
      <trkpt lat="43.56217" lon="6.40614">
        <ele>367.66324</ele>
        <time>2013-01-05T14:45:40Z</time>
      </trkpt>
      <trkpt lat="43.56213" lon="6.406">
        <ele>368.25424</ele>
        <time>2013-01-05T14:45:52Z</time>
      </trkpt>
      <trkpt lat="43.56209" lon="6.40589">
        <ele>369.23975</ele>
        <time>2013-01-05T14:46:04Z</time>
      </trkpt>
      <trkpt lat="43.56207" lon="6.40574">
        <ele>370.2268</ele>
        <time>2013-01-05T14:46:13Z</time>
      </trkpt>
      <trkpt lat="43.56204" lon="6.4056">
        <ele>370.89545</ele>
        <time>2013-01-05T14:46:25Z</time>
      </trkpt>
      <trkpt lat="43.56202" lon="6.40545">
        <ele>371.1671</ele>
        <time>2013-01-05T14:46:37Z</time>
      </trkpt>
      <trkpt lat="43.56205" lon="6.40529">
        <ele>371.22192</ele>
        <time>2013-01-05T14:46:49Z</time>
      </trkpt>
      <trkpt lat="43.56204" lon="6.40513">
        <ele>372.04404</ele>
        <time>2013-01-05T14:47:16Z</time>
      </trkpt>
      <trkpt lat="43.56201" lon="6.40496">
        <ele>374.97726</ele>
        <time>2013-01-05T14:47:34Z</time>
      </trkpt>
      <trkpt lat="43.56199" lon="6.40484">
        <ele>376.38153</ele>
        <time>2013-01-05T14:47:40Z</time>
      </trkpt>
      <trkpt lat="43.56197" lon="6.4047">
        <ele>379.29956</ele>
        <time>2013-01-05T14:47:49Z</time>
      </trkpt>
      <trkpt lat="43.562" lon="6.40456">
        <ele>382.60327</ele>
        <time>2013-01-05T14:47:58Z</time>
      </trkpt>
      <trkpt lat="43.56205" lon="6.40442">
        <ele>383.8502</ele>
        <time>2013-01-05T14:48:34Z</time>
      </trkpt>
      <trkpt lat="43.56208" lon="6.40423">
        <ele>383.18475</ele>
        <time>2013-01-05T14:48:46Z</time>
      </trkpt>
      <trkpt lat="43.56212" lon="6.40409">
        <ele>383.13077</ele>
        <time>2013-01-05T14:48:55Z</time>
      </trkpt>
      <trkpt lat="43.56212" lon="6.40396">
        <ele>383.0305</ele>
        <time>2013-01-05T14:49:01Z</time>
      </trkpt>
      <trkpt lat="43.56206" lon="6.40383">
        <ele>382.50226</ele>
        <time>2013-01-05T14:49:10Z</time>
      </trkpt>
      <trkpt lat="43.56197" lon="6.40377">
        <ele>381.77213</ele>
        <time>2013-01-05T14:49:19Z</time>
      </trkpt>
      <trkpt lat="43.56188" lon="6.40372">
        <ele>380.36032</ele>
        <time>2013-01-05T14:49:28Z</time>
      </trkpt>
      <trkpt lat="43.56177" lon="6.40373">
        <ele>378.7376</ele>
        <time>2013-01-05T14:49:37Z</time>
      </trkpt>
      <trkpt lat="43.56168" lon="6.40378">
        <ele>377.74396</ele>
        <time>2013-01-05T14:49:43Z</time>
      </trkpt>
      <trkpt lat="43.56158" lon="6.40379">
        <ele>376.8102</ele>
        <time>2013-01-05T14:49:52Z</time>
      </trkpt>
      <trkpt lat="43.56147" lon="6.40382">
        <ele>376.26807</ele>
        <time>2013-01-05T14:50:01Z</time>
      </trkpt>
      <trkpt lat="43.56135" lon="6.40382">
        <ele>375.84036</ele>
        <time>2013-01-05T14:50:10Z</time>
      </trkpt>
      <trkpt lat="43.56122" lon="6.40383">
        <ele>375.53827</ele>
        <time>2013-01-05T14:50:19Z</time>
      </trkpt>
      <trkpt lat="43.5611" lon="6.40384">
        <ele>375.6575</ele>
        <time>2013-01-05T14:50:28Z</time>
      </trkpt>
      <trkpt lat="43.561" lon="6.40382">
        <ele>375.81448</ele>
        <time>2013-01-05T14:50:40Z</time>
      </trkpt>
      <trkpt lat="43.56089" lon="6.40382">
        <ele>374.71152</ele>
        <time>2013-01-05T14:50:49Z</time>
      </trkpt>
      <trkpt lat="43.56077" lon="6.40382">
        <ele>372.9866</ele>
        <time>2013-01-05T14:51:01Z</time>
      </trkpt>
      <trkpt lat="43.56067" lon="6.40386">
        <ele>371.71143</ele>
        <time>2013-01-05T14:51:10Z</time>
      </trkpt>
      <trkpt lat="43.56058" lon="6.40385">
        <ele>368.79895</ele>
        <time>2013-01-05T14:52:04Z</time>
      </trkpt>
      <trkpt lat="43.56046" lon="6.4038">
        <ele>369.0013</ele>
        <time>2013-01-05T14:52:13Z</time>
      </trkpt>
      <trkpt lat="43.56035" lon="6.40376">
        <ele>369.48843</ele>
        <time>2013-01-05T14:52:19Z</time>
      </trkpt>
      <trkpt lat="43.56026" lon="6.40375">
        <ele>370.4206</ele>
        <time>2013-01-05T14:52:25Z</time>
      </trkpt>
      <trkpt lat="43.56015" lon="6.40374">
        <ele>372.192</ele>
        <time>2013-01-05T14:52:34Z</time>
      </trkpt>
      <trkpt lat="43.56005" lon="6.40378">
        <ele>374.08203</ele>
        <time>2013-01-05T14:52:43Z</time>
      </trkpt>
      <trkpt lat="43.55996" lon="6.40382">
        <ele>375.96735</ele>
        <time>2013-01-05T14:52:52Z</time>
      </trkpt>
      <trkpt lat="43.55987" lon="6.4038">
        <ele>379.22433</ele>
        <time>2013-01-05T14:53:04Z</time>
      </trkpt>
      <trkpt lat="43.55993" lon="6.40391">
        <ele>381.51877</ele>
        <time>2013-01-05T14:53:34Z</time>
      </trkpt>
      <trkpt lat="43.56002" lon="6.40386">
        <ele>380.8108</ele>
        <time>2013-01-05T14:53:58Z</time>
      </trkpt>
      <trkpt lat="43.55992" lon="6.40393">
        <ele>377.89136</ele>
        <time>2013-01-05T14:54:43Z</time>
      </trkpt>
      <trkpt lat="43.55985" lon="6.40405">
        <ele>376.1893</ele>
        <time>2013-01-05T14:54:55Z</time>
      </trkpt>
      <trkpt lat="43.55977" lon="6.40413">
        <ele>374.99985</ele>
        <time>2013-01-05T14:55:04Z</time>
      </trkpt>
      <trkpt lat="43.5597" lon="6.40422">
        <ele>373.68976</ele>
        <time>2013-01-05T14:55:13Z</time>
      </trkpt>
      <trkpt lat="43.55963" lon="6.4043">
        <ele>371.332</ele>
        <time>2013-01-05T14:55:31Z</time>
      </trkpt>
      <trkpt lat="43.55956" lon="6.40438">
        <ele>369.1758</ele>
        <time>2013-01-05T14:55:43Z</time>
      </trkpt>
      <trkpt lat="43.55948" lon="6.40446">
        <ele>367.52496</ele>
        <time>2013-01-05T14:55:55Z</time>
      </trkpt>
      <trkpt lat="43.5594" lon="6.40457">
        <ele>365.68875</ele>
        <time>2013-01-05T14:56:07Z</time>
      </trkpt>
      <trkpt lat="43.55936" lon="6.4047">
        <ele>364.15942</ele>
        <time>2013-01-05T14:56:16Z</time>
      </trkpt>
      <trkpt lat="43.5593" lon="6.40484">
        <ele>362.54123</ele>
        <time>2013-01-05T14:56:25Z</time>
      </trkpt>
      <trkpt lat="43.55923" lon="6.40498">
        <ele>361.22894</ele>
        <time>2013-01-05T14:56:34Z</time>
      </trkpt>
      <trkpt lat="43.55918" lon="6.4051">
        <ele>360.23816</ele>
        <time>2013-01-05T14:56:46Z</time>
      </trkpt>
      <trkpt lat="43.5591" lon="6.40524">
        <ele>359.401</ele>
        <time>2013-01-05T14:56:58Z</time>
      </trkpt>
      <trkpt lat="43.55903" lon="6.40536">
        <ele>358.5091</ele>
        <time>2013-01-05T14:57:10Z</time>
      </trkpt>
      <trkpt lat="43.55898" lon="6.40547">
        <ele>357.8932</ele>
        <time>2013-01-05T14:57:22Z</time>
      </trkpt>
      <trkpt lat="43.55915" lon="6.40548">
        <ele>358.27115</ele>
        <time>2013-01-05T14:58:11Z</time>
      </trkpt>
      <trkpt lat="43.55902" lon="6.40547">
        <ele>358.8755</ele>
        <time>2013-01-05T14:58:32Z</time>
      </trkpt>
      <trkpt lat="43.55897" lon="6.40558">
        <ele>359.27203</ele>
        <time>2013-01-05T14:58:43Z</time>
      </trkpt>
      <trkpt lat="43.55887" lon="6.40559">
        <ele>357.2608</ele>
        <time>2013-01-05T14:59:40Z</time>
      </trkpt>
      <trkpt lat="43.55885" lon="6.40544">
        <ele>355.7325</ele>
        <time>2013-01-05T15:00:19Z</time>
      </trkpt>
      <trkpt lat="43.55879" lon="6.40533">
        <ele>356.82413</ele>
        <time>2013-01-05T15:00:28Z</time>
      </trkpt>
      <trkpt lat="43.55874" lon="6.40522">
        <ele>358.65164</ele>
        <time>2013-01-05T15:00:40Z</time>
      </trkpt>
      <trkpt lat="43.55866" lon="6.40531">
        <ele>361.77606</ele>
        <time>2013-01-05T15:00:58Z</time>
      </trkpt>
      <trkpt lat="43.55857" lon="6.40527">
        <ele>363.30618</ele>
        <time>2013-01-05T15:01:10Z</time>
      </trkpt>
      <trkpt lat="43.55848" lon="6.40522">
        <ele>363.88687</ele>
        <time>2013-01-05T15:01:21Z</time>
      </trkpt>
      <trkpt lat="43.5584" lon="6.40515">
        <ele>363.98</ele>
        <time>2013-01-05T15:01:33Z</time>
      </trkpt>
      <trkpt lat="43.55829" lon="6.4051">
        <ele>363.6671</ele>
        <time>2013-01-05T15:02:21Z</time>
      </trkpt>
      <trkpt lat="43.55835" lon="6.405">
        <ele>368.0568</ele>
        <time>2013-01-05T15:03:12Z</time>
      </trkpt>
      <trkpt lat="43.55842" lon="6.40491">
        <ele>369.62003</ele>
        <time>2013-01-05T15:03:42Z</time>
      </trkpt>
      <trkpt lat="43.55837" lon="6.4048">
        <ele>371.79654</ele>
        <time>2013-01-05T15:04:57Z</time>
      </trkpt>
      <trkpt lat="43.55828" lon="6.40477">
        <ele>371.723</ele>
        <time>2013-01-05T15:05:12Z</time>
      </trkpt>
      <trkpt lat="43.55819" lon="6.40472">
        <ele>370.6498</ele>
        <time>2013-01-05T15:05:39Z</time>
      </trkpt>
      <trkpt lat="43.55809" lon="6.4047">
        <ele>369.5898</ele>
        <time>2013-01-05T15:06:12Z</time>
      </trkpt>
      <trkpt lat="43.55806" lon="6.40483">
        <ele>367.08215</ele>
        <time>2013-01-05T15:06:30Z</time>
      </trkpt>
      <trkpt lat="43.55794" lon="6.40484">
        <ele>368.16345</ele>
        <time>2013-01-05T15:07:09Z</time>
      </trkpt>
      <trkpt lat="43.55791" lon="6.4047">
        <ele>368.75946</ele>
        <time>2013-01-05T15:07:24Z</time>
      </trkpt>
      <trkpt lat="43.55791" lon="6.40456">
        <ele>370.1999</ele>
        <time>2013-01-05T15:07:39Z</time>
      </trkpt>
      <trkpt lat="43.55784" lon="6.40464">
        <ele>377.14478</ele>
        <time>2013-01-05T15:08:27Z</time>
      </trkpt>
      <trkpt lat="43.55774" lon="6.40455">
        <ele>382.2207</ele>
        <time>2013-01-05T15:09:15Z</time>
      </trkpt>
      <trkpt lat="43.55774" lon="6.40438">
        <ele>383.74445</ele>
        <time>2013-01-05T15:10:00Z</time>
      </trkpt>
      <trkpt lat="43.55764" lon="6.40431">
        <ele>384.25928</ele>
        <time>2013-01-05T15:10:18Z</time>
      </trkpt>
      <trkpt lat="43.55755" lon="6.40429">
        <ele>385.1692</ele>
        <time>2013-01-05T15:10:27Z</time>
      </trkpt>
      <trkpt lat="43.55761" lon="6.40419">
        <ele>386.61703</ele>
        <time>2013-01-05T15:10:48Z</time>
      </trkpt>
      <trkpt lat="43.55769" lon="6.40408">
        <ele>387.1616</ele>
        <time>2013-01-05T15:10:57Z</time>
      </trkpt>
      <trkpt lat="43.55774" lon="6.40398">
        <ele>387.48642</ele>
        <time>2013-01-05T15:11:12Z</time>
      </trkpt>
      <trkpt lat="43.55782" lon="6.40386">
        <ele>387.82742</ele>
        <time>2013-01-05T15:11:27Z</time>
      </trkpt>
      <trkpt lat="43.55784" lon="6.40369">
        <ele>388.4554</ele>
        <time>2013-01-05T15:11:39Z</time>
      </trkpt>
      <trkpt lat="43.55787" lon="6.40356">
        <ele>388.83395</ele>
        <time>2013-01-05T15:12:00Z</time>
      </trkpt>
      <trkpt lat="43.55785" lon="6.40343">
        <ele>389.16135</ele>
        <time>2013-01-05T15:12:12Z</time>
      </trkpt>
      <trkpt lat="43.55783" lon="6.40331">
        <ele>389.69055</ele>
        <time>2013-01-05T15:12:24Z</time>
      </trkpt>
      <trkpt lat="43.55781" lon="6.40315">
        <ele>390.1624</ele>
        <time>2013-01-05T15:12:36Z</time>
      </trkpt>
      <trkpt lat="43.55779" lon="6.40301">
        <ele>390.807</ele>
        <time>2013-01-05T15:12:48Z</time>
      </trkpt>
      <trkpt lat="43.5578" lon="6.40287">
        <ele>391.51318</ele>
        <time>2013-01-05T15:12:57Z</time>
      </trkpt>
      <trkpt lat="43.55783" lon="6.40274">
        <ele>392.2765</ele>
        <time>2013-01-05T15:13:09Z</time>
      </trkpt>
      <trkpt lat="43.55791" lon="6.40268">
        <ele>393.2346</ele>
        <time>2013-01-05T15:13:21Z</time>
      </trkpt>
    </trkseg>
  </trk>
</gpx>